<?xml version="1.0" encoding="UTF-8" standalone="no" ?>
<gpx xmlns="http://www.topografix.com/GPX/1/1" xmlns:xsi="http://www.w3.org/2001/XMLSchema-instance" xsi:schemaLocation="http://www.topografix.com/GPX/1/1 http://www.topografix.com/GPX/1/1/gpx.xsd" version="1.1" creator="VisuGPX - https://www.visugpx.com">
  <metadata>
    <name>Reco TV jour 2</name>
    <desc><![CDATA[Special dedicace à nico]]></desc>
  </metadata>
  <trk>
    <name><![CDATA[ACTIVE LOG131937]]></name>
    <trkseg>
      <trkpt lat="43.91955" lon="7.24438">
        <ele>833.199</ele>
        <time>2009-05-08T11:19:36Z</time>
      </trkpt>
      <trkpt lat="43.91954" lon="7.24436">
        <ele>828.846</ele>
        <time>2009-05-08T11:19:45Z</time>
      </trkpt>
      <trkpt lat="43.91953" lon="7.24436">
        <ele>827.878</ele>
        <time>2009-05-08T11:19:47Z</time>
      </trkpt>
      <trkpt lat="43.91939" lon="7.2444">
        <ele>824.926</ele>
        <time>2009-05-08T11:19:53Z</time>
      </trkpt>
      <trkpt lat="43.91912" lon="7.24451">
        <ele>821.255</ele>
        <time>2009-05-08T11:19:59Z</time>
      </trkpt>
      <trkpt lat="43.91893" lon="7.24479">
        <ele>818.72</ele>
        <time>2009-05-08T11:20:05Z</time>
      </trkpt>
      <trkpt lat="43.91889" lon="7.24497">
        <ele>817.186</ele>
        <time>2009-05-08T11:20:08Z</time>
      </trkpt>
      <trkpt lat="43.91885" lon="7.24521">
        <ele>814.486</ele>
        <time>2009-05-08T11:20:12Z</time>
      </trkpt>
      <trkpt lat="43.9189" lon="7.24533">
        <ele>814.694</ele>
        <time>2009-05-08T11:20:16Z</time>
      </trkpt>
      <trkpt lat="43.9189" lon="7.24532">
        <ele>815.04</ele>
        <time>2009-05-08T11:20:23Z</time>
      </trkpt>
      <trkpt lat="43.91893" lon="7.24529">
        <ele>815.327</ele>
        <time>2009-05-08T11:20:42Z</time>
      </trkpt>
      <trkpt lat="43.91892" lon="7.24528">
        <ele>815.554</ele>
        <time>2009-05-08T11:20:51Z</time>
      </trkpt>
      <trkpt lat="43.91907" lon="7.24524">
        <ele>819.328</ele>
        <time>2009-05-08T11:21:01Z</time>
      </trkpt>
      <trkpt lat="43.91919" lon="7.24523">
        <ele>821.393</ele>
        <time>2009-05-08T11:21:09Z</time>
      </trkpt>
      <trkpt lat="43.91931" lon="7.24514">
        <ele>824.71</ele>
        <time>2009-05-08T11:21:19Z</time>
      </trkpt>
      <trkpt lat="43.9194" lon="7.24505">
        <ele>825.399</ele>
        <time>2009-05-08T11:21:27Z</time>
      </trkpt>
      <trkpt lat="43.91944" lon="7.24495">
        <ele>827.547</ele>
        <time>2009-05-08T11:21:33Z</time>
      </trkpt>
      <trkpt lat="43.91949" lon="7.24486">
        <ele>829.341</ele>
        <time>2009-05-08T11:21:41Z</time>
      </trkpt>
      <trkpt lat="43.91958" lon="7.24482">
        <ele>831.023</ele>
        <time>2009-05-08T11:21:50Z</time>
      </trkpt>
      <trkpt lat="43.91971" lon="7.2448">
        <ele>830.371</ele>
        <time>2009-05-08T11:22:00Z</time>
      </trkpt>
      <trkpt lat="43.9198" lon="7.24476">
        <ele>832.234</ele>
        <time>2009-05-08T11:22:07Z</time>
      </trkpt>
      <trkpt lat="43.91985" lon="7.24473">
        <ele>834.268</ele>
        <time>2009-05-08T11:22:11Z</time>
      </trkpt>
      <trkpt lat="43.91989" lon="7.24473">
        <ele>836.882</ele>
        <time>2009-05-08T11:22:15Z</time>
      </trkpt>
      <trkpt lat="43.91997" lon="7.24467">
        <ele>838.188</ele>
        <time>2009-05-08T11:22:23Z</time>
      </trkpt>
      <trkpt lat="43.92003" lon="7.2446">
        <ele>839.121</ele>
        <time>2009-05-08T11:22:30Z</time>
      </trkpt>
      <trkpt lat="43.92011" lon="7.24454">
        <ele>840.783</ele>
        <time>2009-05-08T11:22:39Z</time>
      </trkpt>
      <trkpt lat="43.92014" lon="7.24452">
        <ele>841.774</ele>
        <time>2009-05-08T11:22:42Z</time>
      </trkpt>
      <trkpt lat="43.92018" lon="7.24444">
        <ele>842.283</ele>
        <time>2009-05-08T11:22:48Z</time>
      </trkpt>
      <trkpt lat="43.92021" lon="7.24441">
        <ele>841.794</ele>
        <time>2009-05-08T11:22:51Z</time>
      </trkpt>
      <trkpt lat="43.92021" lon="7.24436">
        <ele>841.85</ele>
        <time>2009-05-08T11:22:54Z</time>
      </trkpt>
      <trkpt lat="43.92025" lon="7.24426">
        <ele>842.082</ele>
        <time>2009-05-08T11:23:02Z</time>
      </trkpt>
      <trkpt lat="43.92026" lon="7.24424">
        <ele>842.11</ele>
        <time>2009-05-08T11:23:04Z</time>
      </trkpt>
      <trkpt lat="43.92029" lon="7.2442">
        <ele>842.329</ele>
        <time>2009-05-08T11:23:08Z</time>
      </trkpt>
      <trkpt lat="43.92031" lon="7.24418">
        <ele>844.095</ele>
        <time>2009-05-08T11:23:14Z</time>
      </trkpt>
      <trkpt lat="43.92031" lon="7.24416">
        <ele>844.2</ele>
        <time>2009-05-08T11:23:24Z</time>
      </trkpt>
      <trkpt lat="43.92034" lon="7.24412">
        <ele>845.5</ele>
        <time>2009-05-08T11:23:32Z</time>
      </trkpt>
      <trkpt lat="43.92035" lon="7.24408">
        <ele>845.545</ele>
        <time>2009-05-08T11:23:39Z</time>
      </trkpt>
      <trkpt lat="43.92036" lon="7.24404">
        <ele>846.643</ele>
        <time>2009-05-08T11:23:45Z</time>
      </trkpt>
      <trkpt lat="43.92038" lon="7.24401">
        <ele>847.499</ele>
        <time>2009-05-08T11:23:52Z</time>
      </trkpt>
      <trkpt lat="43.92041" lon="7.24395">
        <ele>847.863</ele>
        <time>2009-05-08T11:24:02Z</time>
      </trkpt>
      <trkpt lat="43.92046" lon="7.24391">
        <ele>848.505</ele>
        <time>2009-05-08T11:24:09Z</time>
      </trkpt>
      <trkpt lat="43.92049" lon="7.24385">
        <ele>847.794</ele>
        <time>2009-05-08T11:24:17Z</time>
      </trkpt>
      <trkpt lat="43.9205" lon="7.24382">
        <ele>848.905</ele>
        <time>2009-05-08T11:24:25Z</time>
      </trkpt>
      <trkpt lat="43.92054" lon="7.24378">
        <ele>850.455</ele>
        <time>2009-05-08T11:24:35Z</time>
      </trkpt>
      <trkpt lat="43.92057" lon="7.24374">
        <ele>850.336</ele>
        <time>2009-05-08T11:24:39Z</time>
      </trkpt>
      <trkpt lat="43.92058" lon="7.2437">
        <ele>850.821</ele>
        <time>2009-05-08T11:24:46Z</time>
      </trkpt>
      <trkpt lat="43.9206" lon="7.24364">
        <ele>851.449</ele>
        <time>2009-05-08T11:24:55Z</time>
      </trkpt>
      <trkpt lat="43.92059" lon="7.24359">
        <ele>852.105</ele>
        <time>2009-05-08T11:25:04Z</time>
      </trkpt>
      <trkpt lat="43.92058" lon="7.24355">
        <ele>852.541</ele>
        <time>2009-05-08T11:25:16Z</time>
      </trkpt>
      <trkpt lat="43.92058" lon="7.24352">
        <ele>853.113</ele>
        <time>2009-05-08T11:25:19Z</time>
      </trkpt>
      <trkpt lat="43.92058" lon="7.24349">
        <ele>853.659</ele>
        <time>2009-05-08T11:25:26Z</time>
      </trkpt>
      <trkpt lat="43.92055" lon="7.24341">
        <ele>855.375</ele>
        <time>2009-05-08T11:27:33Z</time>
      </trkpt>
      <trkpt lat="43.92055" lon="7.24328">
        <ele>857.821</ele>
        <time>2009-05-08T11:27:39Z</time>
      </trkpt>
      <trkpt lat="43.92054" lon="7.24325">
        <ele>859.051</ele>
        <time>2009-05-08T11:27:42Z</time>
      </trkpt>
      <trkpt lat="43.92049" lon="7.24316">
        <ele>860.539</ele>
        <time>2009-05-08T11:27:50Z</time>
      </trkpt>
      <trkpt lat="43.92048" lon="7.24315">
        <ele>860.399</ele>
        <time>2009-05-08T11:27:51Z</time>
      </trkpt>
      <trkpt lat="43.92043" lon="7.24308">
        <ele>860.457</ele>
        <time>2009-05-08T11:27:59Z</time>
      </trkpt>
      <trkpt lat="43.92043" lon="7.24307">
        <ele>860.12</ele>
        <time>2009-05-08T11:28:05Z</time>
      </trkpt>
      <trkpt lat="43.92038" lon="7.24296">
        <ele>861.784</ele>
        <time>2009-05-08T11:28:14Z</time>
      </trkpt>
      <trkpt lat="43.92036" lon="7.24293">
        <ele>861.761</ele>
        <time>2009-05-08T11:28:16Z</time>
      </trkpt>
      <trkpt lat="43.92026" lon="7.24281">
        <ele>865.231</ele>
        <time>2009-05-08T11:28:24Z</time>
      </trkpt>
      <trkpt lat="43.92015" lon="7.24274">
        <ele>868.437</ele>
        <time>2009-05-08T11:28:32Z</time>
      </trkpt>
      <trkpt lat="43.92005" lon="7.24271">
        <ele>870.272</ele>
        <time>2009-05-08T11:28:38Z</time>
      </trkpt>
      <trkpt lat="43.91999" lon="7.24269">
        <ele>872.239</ele>
        <time>2009-05-08T11:28:43Z</time>
      </trkpt>
      <trkpt lat="43.91994" lon="7.24263">
        <ele>873.695</ele>
        <time>2009-05-08T11:28:47Z</time>
      </trkpt>
      <trkpt lat="43.91982" lon="7.24251">
        <ele>875.954</ele>
        <time>2009-05-08T11:28:56Z</time>
      </trkpt>
      <trkpt lat="43.91979" lon="7.24248">
        <ele>876.227</ele>
        <time>2009-05-08T11:28:59Z</time>
      </trkpt>
      <trkpt lat="43.91975" lon="7.24238">
        <ele>877.729</ele>
        <time>2009-05-08T11:29:07Z</time>
      </trkpt>
      <trkpt lat="43.9197" lon="7.2423">
        <ele>879.651</ele>
        <time>2009-05-08T11:29:15Z</time>
      </trkpt>
      <trkpt lat="43.9197" lon="7.24227">
        <ele>879.912</ele>
        <time>2009-05-08T11:29:18Z</time>
      </trkpt>
      <trkpt lat="43.91974" lon="7.24226">
        <ele>880.033</ele>
        <time>2009-05-08T11:29:22Z</time>
      </trkpt>
      <trkpt lat="43.9198" lon="7.24227">
        <ele>879.957</ele>
        <time>2009-05-08T11:29:28Z</time>
      </trkpt>
      <trkpt lat="43.91991" lon="7.24234">
        <ele>882.883</ele>
        <time>2009-05-08T11:29:36Z</time>
      </trkpt>
      <trkpt lat="43.92001" lon="7.24234">
        <ele>885.293</ele>
        <time>2009-05-08T11:29:45Z</time>
      </trkpt>
      <trkpt lat="43.92006" lon="7.24225">
        <ele>885.366</ele>
        <time>2009-05-08T11:29:51Z</time>
      </trkpt>
      <trkpt lat="43.92007" lon="7.24222">
        <ele>885.446</ele>
        <time>2009-05-08T11:29:53Z</time>
      </trkpt>
      <trkpt lat="43.92011" lon="7.24215">
        <ele>885.028</ele>
        <time>2009-05-08T11:29:58Z</time>
      </trkpt>
      <trkpt lat="43.92021" lon="7.2421">
        <ele>885.25</ele>
        <time>2009-05-08T11:30:06Z</time>
      </trkpt>
      <trkpt lat="43.9203" lon="7.24209">
        <ele>886.165</ele>
        <time>2009-05-08T11:30:12Z</time>
      </trkpt>
      <trkpt lat="43.92037" lon="7.24208">
        <ele>886.183</ele>
        <time>2009-05-08T11:30:17Z</time>
      </trkpt>
      <trkpt lat="43.92047" lon="7.24207">
        <ele>885.716</ele>
        <time>2009-05-08T11:30:24Z</time>
      </trkpt>
      <trkpt lat="43.92058" lon="7.24206">
        <ele>884.203</ele>
        <time>2009-05-08T11:30:31Z</time>
      </trkpt>
      <trkpt lat="43.92067" lon="7.24199">
        <ele>884.434</ele>
        <time>2009-05-08T11:30:36Z</time>
      </trkpt>
      <trkpt lat="43.92072" lon="7.24185">
        <ele>886.856</ele>
        <time>2009-05-08T11:30:41Z</time>
      </trkpt>
      <trkpt lat="43.92076" lon="7.24163">
        <ele>885.272</ele>
        <time>2009-05-08T11:30:47Z</time>
      </trkpt>
      <trkpt lat="43.92078" lon="7.24143">
        <ele>884.234</ele>
        <time>2009-05-08T11:30:53Z</time>
      </trkpt>
      <trkpt lat="43.92078" lon="7.24119">
        <ele>887.359</ele>
        <time>2009-05-08T11:31:00Z</time>
      </trkpt>
      <trkpt lat="43.92084" lon="7.24102">
        <ele>886.814</ele>
        <time>2009-05-08T11:31:07Z</time>
      </trkpt>
      <trkpt lat="43.92097" lon="7.24092">
        <ele>887.947</ele>
        <time>2009-05-08T11:31:14Z</time>
      </trkpt>
      <trkpt lat="43.92115" lon="7.24081">
        <ele>887.234</ele>
        <time>2009-05-08T11:31:21Z</time>
      </trkpt>
      <trkpt lat="43.92127" lon="7.24069">
        <ele>887.887</ele>
        <time>2009-05-08T11:31:26Z</time>
      </trkpt>
      <trkpt lat="43.92135" lon="7.24048">
        <ele>887.594</ele>
        <time>2009-05-08T11:31:32Z</time>
      </trkpt>
      <trkpt lat="43.9214" lon="7.24028">
        <ele>890.546</ele>
        <time>2009-05-08T11:31:38Z</time>
      </trkpt>
      <trkpt lat="43.92139" lon="7.24011">
        <ele>895.06</ele>
        <time>2009-05-08T11:31:44Z</time>
      </trkpt>
      <trkpt lat="43.92137" lon="7.23993">
        <ele>894.37</ele>
        <time>2009-05-08T11:31:48Z</time>
      </trkpt>
      <trkpt lat="43.9214" lon="7.23975">
        <ele>894.092</ele>
        <time>2009-05-08T11:31:51Z</time>
      </trkpt>
      <trkpt lat="43.92141" lon="7.23944">
        <ele>892.699</ele>
        <time>2009-05-08T11:31:57Z</time>
      </trkpt>
      <trkpt lat="43.92141" lon="7.23935">
        <ele>893.423</ele>
        <time>2009-05-08T11:31:59Z</time>
      </trkpt>
      <trkpt lat="43.92135" lon="7.23908">
        <ele>893.361</ele>
        <time>2009-05-08T11:32:06Z</time>
      </trkpt>
      <trkpt lat="43.92134" lon="7.23904">
        <ele>892.679</ele>
        <time>2009-05-08T11:32:11Z</time>
      </trkpt>
      <trkpt lat="43.92134" lon="7.23904">
        <ele>894.371</ele>
        <time>2009-05-08T11:34:23Z</time>
      </trkpt>
      <trkpt lat="43.92126" lon="7.23893">
        <ele>894.962</ele>
        <time>2009-05-08T11:34:30Z</time>
      </trkpt>
      <trkpt lat="43.9212" lon="7.2389">
        <ele>895.147</ele>
        <time>2009-05-08T11:34:34Z</time>
      </trkpt>
      <trkpt lat="43.92106" lon="7.23892">
        <ele>898.915</ele>
        <time>2009-05-08T11:34:40Z</time>
      </trkpt>
      <trkpt lat="43.92099" lon="7.23897">
        <ele>900.014</ele>
        <time>2009-05-08T11:34:46Z</time>
      </trkpt>
      <trkpt lat="43.92097" lon="7.23897">
        <ele>899.837</ele>
        <time>2009-05-08T11:34:47Z</time>
      </trkpt>
      <trkpt lat="43.92087" lon="7.23899">
        <ele>899.995</ele>
        <time>2009-05-08T11:34:53Z</time>
      </trkpt>
      <trkpt lat="43.92072" lon="7.23894">
        <ele>901.814</ele>
        <time>2009-05-08T11:35:02Z</time>
      </trkpt>
      <trkpt lat="43.92063" lon="7.23891">
        <ele>903.196</ele>
        <time>2009-05-08T11:35:09Z</time>
      </trkpt>
      <trkpt lat="43.92056" lon="7.23882">
        <ele>904.636</ele>
        <time>2009-05-08T11:35:16Z</time>
      </trkpt>
      <trkpt lat="43.92051" lon="7.23874">
        <ele>905.555</ele>
        <time>2009-05-08T11:35:22Z</time>
      </trkpt>
      <trkpt lat="43.92044" lon="7.23857">
        <ele>906.083</ele>
        <time>2009-05-08T11:35:30Z</time>
      </trkpt>
      <trkpt lat="43.92034" lon="7.2385">
        <ele>909.225</ele>
        <time>2009-05-08T11:35:37Z</time>
      </trkpt>
      <trkpt lat="43.92033" lon="7.23848">
        <ele>909.177</ele>
        <time>2009-05-08T11:35:38Z</time>
      </trkpt>
      <trkpt lat="43.92028" lon="7.23836">
        <ele>911.822</ele>
        <time>2009-05-08T11:35:45Z</time>
      </trkpt>
      <trkpt lat="43.92028" lon="7.2383">
        <ele>912.738</ele>
        <time>2009-05-08T11:35:48Z</time>
      </trkpt>
      <trkpt lat="43.92036" lon="7.23816">
        <ele>912.821</ele>
        <time>2009-05-08T11:35:55Z</time>
      </trkpt>
      <trkpt lat="43.92039" lon="7.23812">
        <ele>912.902</ele>
        <time>2009-05-08T11:35:56Z</time>
      </trkpt>
      <trkpt lat="43.92046" lon="7.23788">
        <ele>911.857</ele>
        <time>2009-05-08T11:36:00Z</time>
      </trkpt>
      <trkpt lat="43.92042" lon="7.23751">
        <ele>911.017</ele>
        <time>2009-05-08T11:36:07Z</time>
      </trkpt>
      <trkpt lat="43.92037" lon="7.23729">
        <ele>910.182</ele>
        <time>2009-05-08T11:36:14Z</time>
      </trkpt>
      <trkpt lat="43.92036" lon="7.23713">
        <ele>909.035</ele>
        <time>2009-05-08T11:36:21Z</time>
      </trkpt>
      <trkpt lat="43.9204" lon="7.23691">
        <ele>907.728</ele>
        <time>2009-05-08T11:36:28Z</time>
      </trkpt>
      <trkpt lat="43.92042" lon="7.23675">
        <ele>908.048</ele>
        <time>2009-05-08T11:36:33Z</time>
      </trkpt>
      <trkpt lat="43.92046" lon="7.23651">
        <ele>911.312</ele>
        <time>2009-05-08T11:36:39Z</time>
      </trkpt>
      <trkpt lat="43.9205" lon="7.23626">
        <ele>912.842</ele>
        <time>2009-05-08T11:36:45Z</time>
      </trkpt>
      <trkpt lat="43.92048" lon="7.23607">
        <ele>913.866</ele>
        <time>2009-05-08T11:36:51Z</time>
      </trkpt>
      <trkpt lat="43.92044" lon="7.23585">
        <ele>913.613</ele>
        <time>2009-05-08T11:36:56Z</time>
      </trkpt>
      <trkpt lat="43.9204" lon="7.23564">
        <ele>915.535</ele>
        <time>2009-05-08T11:37:01Z</time>
      </trkpt>
      <trkpt lat="43.92038" lon="7.23551">
        <ele>915.069</ele>
        <time>2009-05-08T11:37:09Z</time>
      </trkpt>
      <trkpt lat="43.92039" lon="7.23549">
        <ele>913.867</ele>
        <time>2009-05-08T11:37:12Z</time>
      </trkpt>
      <trkpt lat="43.92042" lon="7.23536">
        <ele>914.545</ele>
        <time>2009-05-08T11:37:19Z</time>
      </trkpt>
      <trkpt lat="43.92041" lon="7.23529">
        <ele>915.268</ele>
        <time>2009-05-08T11:37:23Z</time>
      </trkpt>
      <trkpt lat="43.92041" lon="7.23515">
        <ele>914.154</ele>
        <time>2009-05-08T11:37:31Z</time>
      </trkpt>
      <trkpt lat="43.92039" lon="7.23508">
        <ele>915.199</ele>
        <time>2009-05-08T11:37:35Z</time>
      </trkpt>
      <trkpt lat="43.92037" lon="7.23501">
        <ele>915.926</ele>
        <time>2009-05-08T11:37:39Z</time>
      </trkpt>
      <trkpt lat="43.92034" lon="7.23495">
        <ele>917.593</ele>
        <time>2009-05-08T11:37:43Z</time>
      </trkpt>
      <trkpt lat="43.92029" lon="7.23481">
        <ele>920.89</ele>
        <time>2009-05-08T11:37:52Z</time>
      </trkpt>
      <trkpt lat="43.92026" lon="7.23469">
        <ele>922.14</ele>
        <time>2009-05-08T11:38:01Z</time>
      </trkpt>
      <trkpt lat="43.92025" lon="7.23458">
        <ele>923.18</ele>
        <time>2009-05-08T11:38:09Z</time>
      </trkpt>
      <trkpt lat="43.92025" lon="7.23458">
        <ele>924.28</ele>
        <time>2009-05-08T11:38:14Z</time>
      </trkpt>
      <trkpt lat="43.9203" lon="7.23475">
        <ele>921.078</ele>
        <time>2009-05-08T11:38:20Z</time>
      </trkpt>
      <trkpt lat="43.92031" lon="7.23478">
        <ele>920.724</ele>
        <time>2009-05-08T11:38:21Z</time>
      </trkpt>
      <trkpt lat="43.92039" lon="7.23507">
        <ele>920.279</ele>
        <time>2009-05-08T11:38:27Z</time>
      </trkpt>
      <trkpt lat="43.9204" lon="7.23535">
        <ele>919.76</ele>
        <time>2009-05-08T11:38:31Z</time>
      </trkpt>
      <trkpt lat="43.92031" lon="7.23548">
        <ele>919.43</ele>
        <time>2009-05-08T11:38:36Z</time>
      </trkpt>
      <trkpt lat="43.92023" lon="7.23551">
        <ele>917.632</ele>
        <time>2009-05-08T11:39:05Z</time>
      </trkpt>
      <trkpt lat="43.92019" lon="7.2355">
        <ele>916.08</ele>
        <time>2009-05-08T11:39:10Z</time>
      </trkpt>
      <trkpt lat="43.9202" lon="7.23551">
        <ele>916.018</ele>
        <time>2009-05-08T11:39:16Z</time>
      </trkpt>
      <trkpt lat="43.92027" lon="7.23551">
        <ele>914.891</ele>
        <time>2009-05-08T11:39:21Z</time>
      </trkpt>
      <trkpt lat="43.92029" lon="7.23551">
        <ele>914.434</ele>
        <time>2009-05-08T11:39:23Z</time>
      </trkpt>
      <trkpt lat="43.92031" lon="7.23544">
        <ele>914.784</ele>
        <time>2009-05-08T11:39:30Z</time>
      </trkpt>
      <trkpt lat="43.9203" lon="7.23542">
        <ele>914.816</ele>
        <time>2009-05-08T11:39:33Z</time>
      </trkpt>
      <trkpt lat="43.9202" lon="7.23535">
        <ele>916.401</ele>
        <time>2009-05-08T11:39:41Z</time>
      </trkpt>
      <trkpt lat="43.92015" lon="7.23531">
        <ele>917.81</ele>
        <time>2009-05-08T11:39:46Z</time>
      </trkpt>
      <trkpt lat="43.92006" lon="7.23524">
        <ele>919.043</ele>
        <time>2009-05-08T11:39:56Z</time>
      </trkpt>
      <trkpt lat="43.92004" lon="7.23521">
        <ele>918.95</ele>
        <time>2009-05-08T11:39:58Z</time>
      </trkpt>
      <trkpt lat="43.91998" lon="7.23515">
        <ele>918.832</ele>
        <time>2009-05-08T11:40:05Z</time>
      </trkpt>
      <trkpt lat="43.91997" lon="7.23515">
        <ele>919.322</ele>
        <time>2009-05-08T11:40:16Z</time>
      </trkpt>
      <trkpt lat="43.91992" lon="7.23514">
        <ele>918.471</ele>
        <time>2009-05-08T11:40:26Z</time>
      </trkpt>
      <trkpt lat="43.91991" lon="7.2351">
        <ele>918.445</ele>
        <time>2009-05-08T11:40:32Z</time>
      </trkpt>
      <trkpt lat="43.91988" lon="7.23507">
        <ele>917.812</ele>
        <time>2009-05-08T11:40:39Z</time>
      </trkpt>
      <trkpt lat="43.91983" lon="7.23503">
        <ele>918.981</ele>
        <time>2009-05-08T11:40:53Z</time>
      </trkpt>
      <trkpt lat="43.91977" lon="7.23499">
        <ele>920.032</ele>
        <time>2009-05-08T11:41:02Z</time>
      </trkpt>
      <trkpt lat="43.91974" lon="7.23497">
        <ele>920.477</ele>
        <time>2009-05-08T11:41:12Z</time>
      </trkpt>
      <trkpt lat="43.9197" lon="7.23494">
        <ele>920.764</ele>
        <time>2009-05-08T11:41:20Z</time>
      </trkpt>
      <trkpt lat="43.91964" lon="7.23492">
        <ele>921.59</ele>
        <time>2009-05-08T11:41:31Z</time>
      </trkpt>
      <trkpt lat="43.91955" lon="7.23482">
        <ele>923.16</ele>
        <time>2009-05-08T11:41:43Z</time>
      </trkpt>
      <trkpt lat="43.9195" lon="7.23477">
        <ele>923.876</ele>
        <time>2009-05-08T11:41:52Z</time>
      </trkpt>
      <trkpt lat="43.91943" lon="7.2347">
        <ele>925.576</ele>
        <time>2009-05-08T11:42:02Z</time>
      </trkpt>
      <trkpt lat="43.91937" lon="7.23465">
        <ele>925.931</ele>
        <time>2009-05-08T11:42:12Z</time>
      </trkpt>
      <trkpt lat="43.91932" lon="7.23459">
        <ele>926.694</ele>
        <time>2009-05-08T11:42:22Z</time>
      </trkpt>
      <trkpt lat="43.91929" lon="7.23456">
        <ele>928.533</ele>
        <time>2009-05-08T11:42:29Z</time>
      </trkpt>
      <trkpt lat="43.9192" lon="7.23451">
        <ele>930.578</ele>
        <time>2009-05-08T11:42:38Z</time>
      </trkpt>
      <trkpt lat="43.91915" lon="7.23445">
        <ele>932.208</ele>
        <time>2009-05-08T11:42:48Z</time>
      </trkpt>
      <trkpt lat="43.91909" lon="7.2344">
        <ele>933.65</ele>
        <time>2009-05-08T11:42:57Z</time>
      </trkpt>
      <trkpt lat="43.91906" lon="7.23435">
        <ele>935.763</ele>
        <time>2009-05-08T11:43:05Z</time>
      </trkpt>
      <trkpt lat="43.91903" lon="7.23435">
        <ele>935.68</ele>
        <time>2009-05-08T11:43:13Z</time>
      </trkpt>
      <trkpt lat="43.91897" lon="7.23431">
        <ele>936.05</ele>
        <time>2009-05-08T11:43:22Z</time>
      </trkpt>
      <trkpt lat="43.91891" lon="7.23428">
        <ele>937.657</ele>
        <time>2009-05-08T11:43:30Z</time>
      </trkpt>
      <trkpt lat="43.91889" lon="7.23426">
        <ele>937.665</ele>
        <time>2009-05-08T11:43:39Z</time>
      </trkpt>
      <trkpt lat="43.91891" lon="7.23424">
        <ele>939.882</ele>
        <time>2009-05-08T11:43:48Z</time>
      </trkpt>
      <trkpt lat="43.91897" lon="7.23422">
        <ele>940.666</ele>
        <time>2009-05-08T11:43:57Z</time>
      </trkpt>
      <trkpt lat="43.91902" lon="7.2342">
        <ele>941.957</ele>
        <time>2009-05-08T11:44:05Z</time>
      </trkpt>
      <trkpt lat="43.91909" lon="7.23414">
        <ele>941.805</ele>
        <time>2009-05-08T11:45:20Z</time>
      </trkpt>
      <trkpt lat="43.91915" lon="7.23415">
        <ele>941.709</ele>
        <time>2009-05-08T11:45:24Z</time>
      </trkpt>
      <trkpt lat="43.91928" lon="7.23409">
        <ele>941.649</ele>
        <time>2009-05-08T11:45:31Z</time>
      </trkpt>
      <trkpt lat="43.91936" lon="7.23405">
        <ele>942.825</ele>
        <time>2009-05-08T11:45:37Z</time>
      </trkpt>
      <trkpt lat="43.91938" lon="7.23404">
        <ele>944.099</ele>
        <time>2009-05-08T11:45:51Z</time>
      </trkpt>
      <trkpt lat="43.91939" lon="7.23405">
        <ele>945.639</ele>
        <time>2009-05-08T11:46:10Z</time>
      </trkpt>
      <trkpt lat="43.91941" lon="7.23405">
        <ele>946.339</ele>
        <time>2009-05-08T11:46:20Z</time>
      </trkpt>
      <trkpt lat="43.91944" lon="7.23406">
        <ele>948.731</ele>
        <time>2009-05-08T11:46:32Z</time>
      </trkpt>
      <trkpt lat="43.91947" lon="7.23404">
        <ele>949.193</ele>
        <time>2009-05-08T11:46:36Z</time>
      </trkpt>
      <trkpt lat="43.91959" lon="7.23402">
        <ele>952.099</ele>
        <time>2009-05-08T11:46:44Z</time>
      </trkpt>
      <trkpt lat="43.91963" lon="7.234">
        <ele>953.461</ele>
        <time>2009-05-08T11:46:50Z</time>
      </trkpt>
      <trkpt lat="43.91962" lon="7.23401">
        <ele>953.537</ele>
        <time>2009-05-08T11:46:57Z</time>
      </trkpt>
      <trkpt lat="43.91957" lon="7.23397">
        <ele>953.266</ele>
        <time>2009-05-08T11:47:19Z</time>
      </trkpt>
      <trkpt lat="43.91954" lon="7.23392">
        <ele>954.567</ele>
        <time>2009-05-08T11:47:29Z</time>
      </trkpt>
      <trkpt lat="43.91947" lon="7.23387">
        <ele>956.3</ele>
        <time>2009-05-08T11:47:38Z</time>
      </trkpt>
      <trkpt lat="43.91941" lon="7.23384">
        <ele>957.979</ele>
        <time>2009-05-08T11:47:48Z</time>
      </trkpt>
      <trkpt lat="43.91935" lon="7.23381">
        <ele>959.419</ele>
        <time>2009-05-08T11:47:57Z</time>
      </trkpt>
      <trkpt lat="43.91931" lon="7.23379">
        <ele>960.42</ele>
        <time>2009-05-08T11:48:05Z</time>
      </trkpt>
      <trkpt lat="43.91927" lon="7.23376">
        <ele>961.681</ele>
        <time>2009-05-08T11:48:15Z</time>
      </trkpt>
      <trkpt lat="43.91921" lon="7.23373">
        <ele>963.072</ele>
        <time>2009-05-08T11:48:23Z</time>
      </trkpt>
      <trkpt lat="43.91918" lon="7.23369">
        <ele>963.629</ele>
        <time>2009-05-08T11:48:30Z</time>
      </trkpt>
      <trkpt lat="43.91912" lon="7.23368">
        <ele>964.291</ele>
        <time>2009-05-08T11:48:38Z</time>
      </trkpt>
      <trkpt lat="43.91907" lon="7.23365">
        <ele>966.221</ele>
        <time>2009-05-08T11:48:47Z</time>
      </trkpt>
      <trkpt lat="43.91903" lon="7.23363">
        <ele>967.156</ele>
        <time>2009-05-08T11:48:55Z</time>
      </trkpt>
      <trkpt lat="43.91898" lon="7.23359">
        <ele>969.15</ele>
        <time>2009-05-08T11:49:05Z</time>
      </trkpt>
      <trkpt lat="43.91891" lon="7.23359">
        <ele>969.706</ele>
        <time>2009-05-08T11:49:13Z</time>
      </trkpt>
      <trkpt lat="43.91889" lon="7.23358">
        <ele>969.304</ele>
        <time>2009-05-08T11:49:15Z</time>
      </trkpt>
      <trkpt lat="43.91887" lon="7.23359">
        <ele>968.628</ele>
        <time>2009-05-08T11:49:24Z</time>
      </trkpt>
      <trkpt lat="43.91883" lon="7.2335">
        <ele>970.556</ele>
        <time>2009-05-08T11:49:53Z</time>
      </trkpt>
      <trkpt lat="43.9188" lon="7.23343">
        <ele>972.742</ele>
        <time>2009-05-08T11:50:02Z</time>
      </trkpt>
      <trkpt lat="43.91877" lon="7.23337">
        <ele>973.916</ele>
        <time>2009-05-08T11:50:09Z</time>
      </trkpt>
      <trkpt lat="43.91873" lon="7.23331">
        <ele>973.872</ele>
        <time>2009-05-08T11:50:18Z</time>
      </trkpt>
      <trkpt lat="43.9187" lon="7.23324">
        <ele>974.35</ele>
        <time>2009-05-08T11:50:27Z</time>
      </trkpt>
      <trkpt lat="43.91866" lon="7.23318">
        <ele>975.246</ele>
        <time>2009-05-08T11:50:35Z</time>
      </trkpt>
      <trkpt lat="43.91862" lon="7.23313">
        <ele>976.54</ele>
        <time>2009-05-08T11:50:44Z</time>
      </trkpt>
      <trkpt lat="43.91857" lon="7.23309">
        <ele>977.507</ele>
        <time>2009-05-08T11:50:53Z</time>
      </trkpt>
      <trkpt lat="43.91852" lon="7.23301">
        <ele>979.311</ele>
        <time>2009-05-08T11:51:01Z</time>
      </trkpt>
      <trkpt lat="43.91849" lon="7.23293">
        <ele>980.855</ele>
        <time>2009-05-08T11:51:11Z</time>
      </trkpt>
      <trkpt lat="43.91847" lon="7.23287">
        <ele>980.951</ele>
        <time>2009-05-08T11:51:18Z</time>
      </trkpt>
      <trkpt lat="43.91849" lon="7.23285">
        <ele>981.689</ele>
        <time>2009-05-08T11:51:24Z</time>
      </trkpt>
      <trkpt lat="43.9185" lon="7.23284">
        <ele>979.394</ele>
        <time>2009-05-08T11:51:35Z</time>
      </trkpt>
      <trkpt lat="43.91853" lon="7.23284">
        <ele>979.928</ele>
        <time>2009-05-08T11:51:40Z</time>
      </trkpt>
      <trkpt lat="43.91854" lon="7.23284">
        <ele>980.207</ele>
        <time>2009-05-08T11:51:41Z</time>
      </trkpt>
      <trkpt lat="43.91859" lon="7.2328">
        <ele>980.682</ele>
        <time>2009-05-08T11:51:50Z</time>
      </trkpt>
      <trkpt lat="43.9186" lon="7.23278">
        <ele>980.655</ele>
        <time>2009-05-08T11:52:02Z</time>
      </trkpt>
      <trkpt lat="43.91869" lon="7.23271">
        <ele>982.738</ele>
        <time>2009-05-08T11:52:09Z</time>
      </trkpt>
      <trkpt lat="43.91871" lon="7.2327">
        <ele>983.218</ele>
        <time>2009-05-08T11:52:14Z</time>
      </trkpt>
      <trkpt lat="43.91872" lon="7.2327">
        <ele>983.241</ele>
        <time>2009-05-08T11:52:21Z</time>
      </trkpt>
      <trkpt lat="43.91873" lon="7.23268">
        <ele>983.707</ele>
        <time>2009-05-08T11:52:24Z</time>
      </trkpt>
      <trkpt lat="43.91877" lon="7.23256">
        <ele>985.107</ele>
        <time>2009-05-08T11:52:31Z</time>
      </trkpt>
      <trkpt lat="43.91878" lon="7.23253">
        <ele>985.664</ele>
        <time>2009-05-08T11:52:39Z</time>
      </trkpt>
      <trkpt lat="43.91881" lon="7.2325">
        <ele>987.171</ele>
        <time>2009-05-08T11:52:55Z</time>
      </trkpt>
      <trkpt lat="43.9188" lon="7.23247">
        <ele>987.917</ele>
        <time>2009-05-08T11:53:01Z</time>
      </trkpt>
      <trkpt lat="43.91883" lon="7.23237">
        <ele>987.46</ele>
        <time>2009-05-08T11:53:10Z</time>
      </trkpt>
      <trkpt lat="43.91882" lon="7.23233">
        <ele>987.677</ele>
        <time>2009-05-08T11:53:16Z</time>
      </trkpt>
      <trkpt lat="43.91883" lon="7.23223">
        <ele>988.183</ele>
        <time>2009-05-08T11:53:25Z</time>
      </trkpt>
      <trkpt lat="43.91882" lon="7.23217">
        <ele>988.66</ele>
        <time>2009-05-08T11:53:34Z</time>
      </trkpt>
      <trkpt lat="43.91882" lon="7.23216">
        <ele>988.242</ele>
        <time>2009-05-08T11:53:58Z</time>
      </trkpt>
      <trkpt lat="43.91879" lon="7.2321">
        <ele>988.956</ele>
        <time>2009-05-08T11:55:02Z</time>
      </trkpt>
      <trkpt lat="43.91875" lon="7.232">
        <ele>990.444</ele>
        <time>2009-05-08T11:55:14Z</time>
      </trkpt>
      <trkpt lat="43.91866" lon="7.23194">
        <ele>991.305</ele>
        <time>2009-05-08T11:55:30Z</time>
      </trkpt>
      <trkpt lat="43.91863" lon="7.2319">
        <ele>990.927</ele>
        <time>2009-05-08T11:55:45Z</time>
      </trkpt>
      <trkpt lat="43.91862" lon="7.23187">
        <ele>990.656</ele>
        <time>2009-05-08T11:56:02Z</time>
      </trkpt>
      <trkpt lat="43.91858" lon="7.23184">
        <ele>991.558</ele>
        <time>2009-05-08T11:56:06Z</time>
      </trkpt>
      <trkpt lat="43.9185" lon="7.23181">
        <ele>993.109</ele>
        <time>2009-05-08T11:56:14Z</time>
      </trkpt>
      <trkpt lat="43.91848" lon="7.23178">
        <ele>993.61</ele>
        <time>2009-05-08T11:56:18Z</time>
      </trkpt>
      <trkpt lat="43.91844" lon="7.23171">
        <ele>994.577</ele>
        <time>2009-05-08T11:56:27Z</time>
      </trkpt>
      <trkpt lat="43.91838" lon="7.2316">
        <ele>997.473</ele>
        <time>2009-05-08T11:56:37Z</time>
      </trkpt>
      <trkpt lat="43.91833" lon="7.23155">
        <ele>999.689</ele>
        <time>2009-05-08T11:56:44Z</time>
      </trkpt>
      <trkpt lat="43.91826" lon="7.23153">
        <ele>1001.056</ele>
        <time>2009-05-08T11:56:54Z</time>
      </trkpt>
      <trkpt lat="43.91822" lon="7.23149">
        <ele>1001.531</ele>
        <time>2009-05-08T11:57:02Z</time>
      </trkpt>
      <trkpt lat="43.91817" lon="7.23148">
        <ele>1004.47</ele>
        <time>2009-05-08T11:57:09Z</time>
      </trkpt>
      <trkpt lat="43.91814" lon="7.2314">
        <ele>1008.18</ele>
        <time>2009-05-08T11:57:19Z</time>
      </trkpt>
      <trkpt lat="43.91813" lon="7.2314">
        <ele>1010.146</ele>
        <time>2009-05-08T11:57:32Z</time>
      </trkpt>
      <trkpt lat="43.91813" lon="7.2314">
        <ele>1010.708</ele>
        <time>2009-05-08T11:58:23Z</time>
      </trkpt>
      <trkpt lat="43.91812" lon="7.23134">
        <ele>1011.161</ele>
        <time>2009-05-08T11:58:26Z</time>
      </trkpt>
      <trkpt lat="43.91813" lon="7.23122">
        <ele>1011.262</ele>
        <time>2009-05-08T11:58:31Z</time>
      </trkpt>
      <trkpt lat="43.91809" lon="7.23112">
        <ele>1010.538</ele>
        <time>2009-05-08T11:58:37Z</time>
      </trkpt>
      <trkpt lat="43.91807" lon="7.23107">
        <ele>1010.619</ele>
        <time>2009-05-08T11:58:40Z</time>
      </trkpt>
      <trkpt lat="43.918" lon="7.23096">
        <ele>1010.922</ele>
        <time>2009-05-08T11:58:47Z</time>
      </trkpt>
      <trkpt lat="43.91793" lon="7.23084">
        <ele>1013.363</ele>
        <time>2009-05-08T11:58:54Z</time>
      </trkpt>
      <trkpt lat="43.91793" lon="7.2307">
        <ele>1013.256</ele>
        <time>2009-05-08T11:59:01Z</time>
      </trkpt>
      <trkpt lat="43.91794" lon="7.23068">
        <ele>1012.161</ele>
        <time>2009-05-08T11:59:02Z</time>
      </trkpt>
      <trkpt lat="43.91794" lon="7.23063">
        <ele>1012.196</ele>
        <time>2009-05-08T11:59:05Z</time>
      </trkpt>
      <trkpt lat="43.9179" lon="7.23054">
        <ele>1010.491</ele>
        <time>2009-05-08T11:59:12Z</time>
      </trkpt>
      <trkpt lat="43.91785" lon="7.23049">
        <ele>1010.291</ele>
        <time>2009-05-08T11:59:18Z</time>
      </trkpt>
      <trkpt lat="43.9178" lon="7.23043">
        <ele>1009.25</ele>
        <time>2009-05-08T11:59:25Z</time>
      </trkpt>
      <trkpt lat="43.91777" lon="7.23039">
        <ele>1011.959</ele>
        <time>2009-05-08T11:59:33Z</time>
      </trkpt>
      <trkpt lat="43.91768" lon="7.23036">
        <ele>1013.612</ele>
        <time>2009-05-08T11:59:39Z</time>
      </trkpt>
      <trkpt lat="43.91758" lon="7.23037">
        <ele>1015.712</ele>
        <time>2009-05-08T11:59:45Z</time>
      </trkpt>
      <trkpt lat="43.91749" lon="7.23035">
        <ele>1018.821</ele>
        <time>2009-05-08T11:59:52Z</time>
      </trkpt>
      <trkpt lat="43.91747" lon="7.23036">
        <ele>1021.43</ele>
        <time>2009-05-08T11:59:58Z</time>
      </trkpt>
      <trkpt lat="43.91742" lon="7.23036">
        <ele>1021.532</ele>
        <time>2009-05-08T12:00:06Z</time>
      </trkpt>
      <trkpt lat="43.91741" lon="7.23036">
        <ele>1022.367</ele>
        <time>2009-05-08T12:00:25Z</time>
      </trkpt>
      <trkpt lat="43.91737" lon="7.23035">
        <ele>1023.241</ele>
        <time>2009-05-08T12:00:35Z</time>
      </trkpt>
      <trkpt lat="43.91733" lon="7.23034">
        <ele>1024.011</ele>
        <time>2009-05-08T12:00:41Z</time>
      </trkpt>
      <trkpt lat="43.91721" lon="7.23033">
        <ele>1024.465</ele>
        <time>2009-05-08T12:00:49Z</time>
      </trkpt>
      <trkpt lat="43.91719" lon="7.23032">
        <ele>1024.809</ele>
        <time>2009-05-08T12:00:51Z</time>
      </trkpt>
      <trkpt lat="43.9171" lon="7.23034">
        <ele>1025.739</ele>
        <time>2009-05-08T12:00:57Z</time>
      </trkpt>
      <trkpt lat="43.91709" lon="7.23035">
        <ele>1025.935</ele>
        <time>2009-05-08T12:00:58Z</time>
      </trkpt>
      <trkpt lat="43.91706" lon="7.23036">
        <ele>1025.933</ele>
        <time>2009-05-08T12:01:02Z</time>
      </trkpt>
      <trkpt lat="43.91701" lon="7.23038">
        <ele>1026.86</ele>
        <time>2009-05-08T12:01:09Z</time>
      </trkpt>
      <trkpt lat="43.917" lon="7.2304">
        <ele>1027.791</ele>
        <time>2009-05-08T12:01:16Z</time>
      </trkpt>
      <trkpt lat="43.91693" lon="7.23041">
        <ele>1028.083</ele>
        <time>2009-05-08T12:01:53Z</time>
      </trkpt>
      <trkpt lat="43.91685" lon="7.23052">
        <ele>1029.91</ele>
        <time>2009-05-08T12:02:01Z</time>
      </trkpt>
      <trkpt lat="43.9168" lon="7.23061">
        <ele>1034.4</ele>
        <time>2009-05-08T12:02:08Z</time>
      </trkpt>
      <trkpt lat="43.91678" lon="7.23062">
        <ele>1035.319</ele>
        <time>2009-05-08T12:02:10Z</time>
      </trkpt>
      <trkpt lat="43.9167" lon="7.2307">
        <ele>1037.294</ele>
        <time>2009-05-08T12:02:18Z</time>
      </trkpt>
      <trkpt lat="43.91668" lon="7.23072">
        <ele>1038.335</ele>
        <time>2009-05-08T12:02:21Z</time>
      </trkpt>
      <trkpt lat="43.91664" lon="7.23077">
        <ele>1040.917</ele>
        <time>2009-05-08T12:02:27Z</time>
      </trkpt>
      <trkpt lat="43.91661" lon="7.23083">
        <ele>1042.982</ele>
        <time>2009-05-08T12:02:32Z</time>
      </trkpt>
      <trkpt lat="43.91657" lon="7.23086">
        <ele>1043.385</ele>
        <time>2009-05-08T12:02:36Z</time>
      </trkpt>
      <trkpt lat="43.91651" lon="7.23089">
        <ele>1046.476</ele>
        <time>2009-05-08T12:02:44Z</time>
      </trkpt>
      <trkpt lat="43.91647" lon="7.23091">
        <ele>1048.153</ele>
        <time>2009-05-08T12:03:02Z</time>
      </trkpt>
      <trkpt lat="43.91645" lon="7.2309">
        <ele>1048.179</ele>
        <time>2009-05-08T12:03:11Z</time>
      </trkpt>
      <trkpt lat="43.91643" lon="7.2309">
        <ele>1047.874</ele>
        <time>2009-05-08T12:03:13Z</time>
      </trkpt>
      <trkpt lat="43.91639" lon="7.23089">
        <ele>1049.256</ele>
        <time>2009-05-08T12:03:16Z</time>
      </trkpt>
      <trkpt lat="43.91629" lon="7.2309">
        <ele>1050.829</ele>
        <time>2009-05-08T12:03:23Z</time>
      </trkpt>
      <trkpt lat="43.91629" lon="7.2309">
        <ele>1050.574</ele>
        <time>2009-05-08T12:03:29Z</time>
      </trkpt>
      <trkpt lat="43.91626" lon="7.23092">
        <ele>1050.22</ele>
        <time>2009-05-08T12:03:39Z</time>
      </trkpt>
      <trkpt lat="43.91626" lon="7.23092">
        <ele>1049.58</ele>
        <time>2009-05-08T12:04:05Z</time>
      </trkpt>
      <trkpt lat="43.91626" lon="7.23097">
        <ele>1050.321</ele>
        <time>2009-05-08T12:08:40Z</time>
      </trkpt>
      <trkpt lat="43.91625" lon="7.23102">
        <ele>1051.353</ele>
        <time>2009-05-08T12:08:48Z</time>
      </trkpt>
      <trkpt lat="43.91621" lon="7.23109">
        <ele>1052.857</ele>
        <time>2009-05-08T12:08:55Z</time>
      </trkpt>
      <trkpt lat="43.91617" lon="7.23113">
        <ele>1054.066</ele>
        <time>2009-05-08T12:09:05Z</time>
      </trkpt>
      <trkpt lat="43.91613" lon="7.23112">
        <ele>1055.425</ele>
        <time>2009-05-08T12:09:11Z</time>
      </trkpt>
      <trkpt lat="43.9161" lon="7.23113">
        <ele>1056.214</ele>
        <time>2009-05-08T12:09:18Z</time>
      </trkpt>
      <trkpt lat="43.91595" lon="7.23107">
        <ele>1056.432</ele>
        <time>2009-05-08T12:09:30Z</time>
      </trkpt>
      <trkpt lat="43.91582" lon="7.23105">
        <ele>1057.02</ele>
        <time>2009-05-08T12:09:39Z</time>
      </trkpt>
      <trkpt lat="43.91579" lon="7.23107">
        <ele>1057.664</ele>
        <time>2009-05-08T12:09:42Z</time>
      </trkpt>
      <trkpt lat="43.91574" lon="7.23109">
        <ele>1058.202</ele>
        <time>2009-05-08T12:09:46Z</time>
      </trkpt>
      <trkpt lat="43.91566" lon="7.23115">
        <ele>1060.57</ele>
        <time>2009-05-08T12:09:53Z</time>
      </trkpt>
      <trkpt lat="43.91555" lon="7.23124">
        <ele>1059.758</ele>
        <time>2009-05-08T12:10:03Z</time>
      </trkpt>
      <trkpt lat="43.91546" lon="7.2313">
        <ele>1059.159</ele>
        <time>2009-05-08T12:10:10Z</time>
      </trkpt>
      <trkpt lat="43.91541" lon="7.23133">
        <ele>1059.166</ele>
        <time>2009-05-08T12:10:14Z</time>
      </trkpt>
      <trkpt lat="43.91526" lon="7.23141">
        <ele>1059.309</ele>
        <time>2009-05-08T12:10:25Z</time>
      </trkpt>
      <trkpt lat="43.91511" lon="7.23148">
        <ele>1058.161</ele>
        <time>2009-05-08T12:10:36Z</time>
      </trkpt>
      <trkpt lat="43.91494" lon="7.23157">
        <ele>1060.919</ele>
        <time>2009-05-08T12:10:46Z</time>
      </trkpt>
      <trkpt lat="43.91487" lon="7.2316">
        <ele>1062.585</ele>
        <time>2009-05-08T12:10:53Z</time>
      </trkpt>
      <trkpt lat="43.91487" lon="7.23159">
        <ele>1063.199</ele>
        <time>2009-05-08T12:11:03Z</time>
      </trkpt>
      <trkpt lat="43.9149" lon="7.23156">
        <ele>1063.669</ele>
        <time>2009-05-08T12:11:09Z</time>
      </trkpt>
      <trkpt lat="43.91488" lon="7.23156">
        <ele>1063.869</ele>
        <time>2009-05-08T12:11:23Z</time>
      </trkpt>
      <trkpt lat="43.9148" lon="7.23158">
        <ele>1065.339</ele>
        <time>2009-05-08T12:12:10Z</time>
      </trkpt>
      <trkpt lat="43.91472" lon="7.2316">
        <ele>1067.028</ele>
        <time>2009-05-08T12:12:18Z</time>
      </trkpt>
      <trkpt lat="43.91463" lon="7.23161">
        <ele>1067.999</ele>
        <time>2009-05-08T12:12:23Z</time>
      </trkpt>
      <trkpt lat="43.9145" lon="7.23156">
        <ele>1071.341</ele>
        <time>2009-05-08T12:12:32Z</time>
      </trkpt>
      <trkpt lat="43.91448" lon="7.23154">
        <ele>1072.144</ele>
        <time>2009-05-08T12:12:34Z</time>
      </trkpt>
      <trkpt lat="43.91442" lon="7.2315">
        <ele>1073.476</ele>
        <time>2009-05-08T12:12:39Z</time>
      </trkpt>
      <trkpt lat="43.91434" lon="7.23148">
        <ele>1074.918</ele>
        <time>2009-05-08T12:12:48Z</time>
      </trkpt>
      <trkpt lat="43.91434" lon="7.23148">
        <ele>1075.178</ele>
        <time>2009-05-08T12:12:57Z</time>
      </trkpt>
      <trkpt lat="43.91432" lon="7.23146">
        <ele>1075.562</ele>
        <time>2009-05-08T12:13:26Z</time>
      </trkpt>
      <trkpt lat="43.9143" lon="7.23147">
        <ele>1075.071</ele>
        <time>2009-05-08T12:13:34Z</time>
      </trkpt>
      <trkpt lat="43.91427" lon="7.23146">
        <ele>1074.51</ele>
        <time>2009-05-08T12:13:40Z</time>
      </trkpt>
      <trkpt lat="43.91423" lon="7.23145">
        <ele>1073.486</ele>
        <time>2009-05-08T12:13:48Z</time>
      </trkpt>
      <trkpt lat="43.91422" lon="7.23146">
        <ele>1073.315</ele>
        <time>2009-05-08T12:13:58Z</time>
      </trkpt>
      <trkpt lat="43.91419" lon="7.23143">
        <ele>1073.773</ele>
        <time>2009-05-08T12:14:27Z</time>
      </trkpt>
      <trkpt lat="43.91416" lon="7.23142">
        <ele>1073.66</ele>
        <time>2009-05-08T12:14:36Z</time>
      </trkpt>
      <trkpt lat="43.91413" lon="7.23142">
        <ele>1073.559</ele>
        <time>2009-05-08T12:14:43Z</time>
      </trkpt>
      <trkpt lat="43.91408" lon="7.23144">
        <ele>1072.887</ele>
        <time>2009-05-08T12:14:52Z</time>
      </trkpt>
      <trkpt lat="43.91408" lon="7.23145">
        <ele>1073.164</ele>
        <time>2009-05-08T12:15:00Z</time>
      </trkpt>
      <trkpt lat="43.91408" lon="7.23146">
        <ele>1073.537</ele>
        <time>2009-05-08T12:15:10Z</time>
      </trkpt>
      <trkpt lat="43.91404" lon="7.23145">
        <ele>1074.449</ele>
        <time>2009-05-08T12:15:17Z</time>
      </trkpt>
      <trkpt lat="43.91404" lon="7.23146">
        <ele>1076.802</ele>
        <time>2009-05-08T12:15:23Z</time>
      </trkpt>
      <trkpt lat="43.91404" lon="7.2315">
        <ele>1078.381</ele>
        <time>2009-05-08T12:15:28Z</time>
      </trkpt>
      <trkpt lat="43.91399" lon="7.23152">
        <ele>1078.833</ele>
        <time>2009-05-08T12:15:35Z</time>
      </trkpt>
      <trkpt lat="43.91397" lon="7.23152">
        <ele>1078.151</ele>
        <time>2009-05-08T12:15:46Z</time>
      </trkpt>
      <trkpt lat="43.91392" lon="7.2315">
        <ele>1078.196</ele>
        <time>2009-05-08T12:15:52Z</time>
      </trkpt>
      <trkpt lat="43.9139" lon="7.23147">
        <ele>1078.792</ele>
        <time>2009-05-08T12:15:58Z</time>
      </trkpt>
      <trkpt lat="43.9139" lon="7.23147">
        <ele>1079.345</ele>
        <time>2009-05-08T12:15:59Z</time>
      </trkpt>
      <trkpt lat="43.91386" lon="7.23137">
        <ele>1083.081</ele>
        <time>2009-05-08T12:16:08Z</time>
      </trkpt>
      <trkpt lat="43.91382" lon="7.23131">
        <ele>1084.345</ele>
        <time>2009-05-08T12:16:13Z</time>
      </trkpt>
      <trkpt lat="43.91377" lon="7.23122">
        <ele>1085.909</ele>
        <time>2009-05-08T12:16:18Z</time>
      </trkpt>
      <trkpt lat="43.91372" lon="7.23115">
        <ele>1086.554</ele>
        <time>2009-05-08T12:16:25Z</time>
      </trkpt>
      <trkpt lat="43.91374" lon="7.23117">
        <ele>1087.678</ele>
        <time>2009-05-08T12:16:33Z</time>
      </trkpt>
      <trkpt lat="43.91374" lon="7.23121">
        <ele>1087.783</ele>
        <time>2009-05-08T12:16:43Z</time>
      </trkpt>
      <trkpt lat="43.91373" lon="7.23121">
        <ele>1088.871</ele>
        <time>2009-05-08T12:17:19Z</time>
      </trkpt>
      <trkpt lat="43.91376" lon="7.23123">
        <ele>1089.069</ele>
        <time>2009-05-08T12:17:30Z</time>
      </trkpt>
      <trkpt lat="43.91376" lon="7.23124">
        <ele>1088.922</ele>
        <time>2009-05-08T12:17:32Z</time>
      </trkpt>
      <trkpt lat="43.91377" lon="7.23148">
        <ele>1091.876</ele>
        <time>2009-05-08T12:17:43Z</time>
      </trkpt>
      <trkpt lat="43.91376" lon="7.23152">
        <ele>1092.109</ele>
        <time>2009-05-08T12:17:46Z</time>
      </trkpt>
      <trkpt lat="43.91372" lon="7.23151">
        <ele>1092.593</ele>
        <time>2009-05-08T12:17:52Z</time>
      </trkpt>
      <trkpt lat="43.91371" lon="7.23149">
        <ele>1093.492</ele>
        <time>2009-05-08T12:17:54Z</time>
      </trkpt>
      <trkpt lat="43.91364" lon="7.23135">
        <ele>1095.727</ele>
        <time>2009-05-08T12:18:04Z</time>
      </trkpt>
      <trkpt lat="43.91359" lon="7.23129">
        <ele>1096.547</ele>
        <time>2009-05-08T12:18:08Z</time>
      </trkpt>
      <trkpt lat="43.91354" lon="7.23125">
        <ele>1099.215</ele>
        <time>2009-05-08T12:18:15Z</time>
      </trkpt>
      <trkpt lat="43.91355" lon="7.23129">
        <ele>1098.083</ele>
        <time>2009-05-08T12:18:26Z</time>
      </trkpt>
      <trkpt lat="43.91354" lon="7.23135">
        <ele>1098.093</ele>
        <time>2009-05-08T12:18:35Z</time>
      </trkpt>
      <trkpt lat="43.91355" lon="7.23137">
        <ele>1098.715</ele>
        <time>2009-05-08T12:18:37Z</time>
      </trkpt>
      <trkpt lat="43.91355" lon="7.23145">
        <ele>1099.652</ele>
        <time>2009-05-08T12:18:41Z</time>
      </trkpt>
      <trkpt lat="43.91355" lon="7.23157">
        <ele>1099.892</ele>
        <time>2009-05-08T12:18:49Z</time>
      </trkpt>
      <trkpt lat="43.91354" lon="7.23158">
        <ele>1100.178</ele>
        <time>2009-05-08T12:18:51Z</time>
      </trkpt>
      <trkpt lat="43.91349" lon="7.2315">
        <ele>1101.412</ele>
        <time>2009-05-08T12:18:58Z</time>
      </trkpt>
      <trkpt lat="43.91349" lon="7.23149">
        <ele>1101.41</ele>
        <time>2009-05-08T12:18:59Z</time>
      </trkpt>
      <trkpt lat="43.91341" lon="7.23139">
        <ele>1103.269</ele>
        <time>2009-05-08T12:19:06Z</time>
      </trkpt>
      <trkpt lat="43.9133" lon="7.23134">
        <ele>1103.273</ele>
        <time>2009-05-08T12:19:13Z</time>
      </trkpt>
      <trkpt lat="43.91333" lon="7.23146">
        <ele>1105.921</ele>
        <time>2009-05-08T12:19:20Z</time>
      </trkpt>
      <trkpt lat="43.91334" lon="7.23159">
        <ele>1108.506</ele>
        <time>2009-05-08T12:19:29Z</time>
      </trkpt>
      <trkpt lat="43.91329" lon="7.23155">
        <ele>1109.679</ele>
        <time>2009-05-08T12:19:36Z</time>
      </trkpt>
      <trkpt lat="43.91324" lon="7.23148">
        <ele>1110.951</ele>
        <time>2009-05-08T12:19:43Z</time>
      </trkpt>
      <trkpt lat="43.91321" lon="7.23147">
        <ele>1110.813</ele>
        <time>2009-05-08T12:19:50Z</time>
      </trkpt>
      <trkpt lat="43.91317" lon="7.23144">
        <ele>1110.976</ele>
        <time>2009-05-08T12:19:56Z</time>
      </trkpt>
      <trkpt lat="43.91313" lon="7.2314">
        <ele>1111.453</ele>
        <time>2009-05-08T12:20:01Z</time>
      </trkpt>
      <trkpt lat="43.91307" lon="7.23136">
        <ele>1113.865</ele>
        <time>2009-05-08T12:20:09Z</time>
      </trkpt>
      <trkpt lat="43.91307" lon="7.23137">
        <ele>1114.505</ele>
        <time>2009-05-08T12:20:20Z</time>
      </trkpt>
      <trkpt lat="43.91308" lon="7.23143">
        <ele>1115.418</ele>
        <time>2009-05-08T12:20:29Z</time>
      </trkpt>
      <trkpt lat="43.91309" lon="7.2315">
        <ele>1117.295</ele>
        <time>2009-05-08T12:20:36Z</time>
      </trkpt>
      <trkpt lat="43.91308" lon="7.23152">
        <ele>1118.512</ele>
        <time>2009-05-08T12:20:45Z</time>
      </trkpt>
      <trkpt lat="43.91306" lon="7.23155">
        <ele>1119.235</ele>
        <time>2009-05-08T12:21:04Z</time>
      </trkpt>
      <trkpt lat="43.91305" lon="7.23155">
        <ele>1119.824</ele>
        <time>2009-05-08T12:21:17Z</time>
      </trkpt>
      <trkpt lat="43.91303" lon="7.23156">
        <ele>1120.992</ele>
        <time>2009-05-08T12:21:26Z</time>
      </trkpt>
      <trkpt lat="43.91298" lon="7.23153">
        <ele>1121.062</ele>
        <time>2009-05-08T12:21:34Z</time>
      </trkpt>
      <trkpt lat="43.91294" lon="7.23155">
        <ele>1121.419</ele>
        <time>2009-05-08T12:21:41Z</time>
      </trkpt>
      <trkpt lat="43.91292" lon="7.23154">
        <ele>1121.701</ele>
        <time>2009-05-08T12:21:52Z</time>
      </trkpt>
      <trkpt lat="43.91288" lon="7.23153">
        <ele>1122.802</ele>
        <time>2009-05-08T12:22:03Z</time>
      </trkpt>
      <trkpt lat="43.91285" lon="7.23152">
        <ele>1123.097</ele>
        <time>2009-05-08T12:22:14Z</time>
      </trkpt>
      <trkpt lat="43.91282" lon="7.23148">
        <ele>1123.929</ele>
        <time>2009-05-08T12:22:23Z</time>
      </trkpt>
      <trkpt lat="43.91279" lon="7.23148">
        <ele>1125.198</ele>
        <time>2009-05-08T12:24:49Z</time>
      </trkpt>
      <trkpt lat="43.91275" lon="7.2314">
        <ele>1125.75</ele>
        <time>2009-05-08T12:24:57Z</time>
      </trkpt>
      <trkpt lat="43.91275" lon="7.23137">
        <ele>1126.721</ele>
        <time>2009-05-08T12:25:03Z</time>
      </trkpt>
      <trkpt lat="43.91273" lon="7.23134">
        <ele>1129.1</ele>
        <time>2009-05-08T12:25:11Z</time>
      </trkpt>
      <trkpt lat="43.91271" lon="7.23135">
        <ele>1130.187</ele>
        <time>2009-05-08T12:25:23Z</time>
      </trkpt>
      <trkpt lat="43.91267" lon="7.23136">
        <ele>1132.497</ele>
        <time>2009-05-08T12:25:32Z</time>
      </trkpt>
      <trkpt lat="43.91266" lon="7.23139">
        <ele>1132.779</ele>
        <time>2009-05-08T12:25:39Z</time>
      </trkpt>
      <trkpt lat="43.91268" lon="7.23151">
        <ele>1134.538</ele>
        <time>2009-05-08T12:25:45Z</time>
      </trkpt>
      <trkpt lat="43.91267" lon="7.2316">
        <ele>1133.99</ele>
        <time>2009-05-08T12:25:50Z</time>
      </trkpt>
      <trkpt lat="43.91267" lon="7.23171">
        <ele>1136.238</ele>
        <time>2009-05-08T12:25:58Z</time>
      </trkpt>
      <trkpt lat="43.91263" lon="7.23173">
        <ele>1135.777</ele>
        <time>2009-05-08T12:26:02Z</time>
      </trkpt>
      <trkpt lat="43.91258" lon="7.23162">
        <ele>1136.707</ele>
        <time>2009-05-08T12:26:10Z</time>
      </trkpt>
      <trkpt lat="43.91253" lon="7.23156">
        <ele>1137.897</ele>
        <time>2009-05-08T12:26:37Z</time>
      </trkpt>
      <trkpt lat="43.91248" lon="7.23143">
        <ele>1139.514</ele>
        <time>2009-05-08T12:26:45Z</time>
      </trkpt>
      <trkpt lat="43.91245" lon="7.23141">
        <ele>1140.457</ele>
        <time>2009-05-08T12:26:51Z</time>
      </trkpt>
      <trkpt lat="43.91245" lon="7.23149">
        <ele>1143.305</ele>
        <time>2009-05-08T12:27:08Z</time>
      </trkpt>
      <trkpt lat="43.91248" lon="7.23159">
        <ele>1145.422</ele>
        <time>2009-05-08T12:27:16Z</time>
      </trkpt>
      <trkpt lat="43.91248" lon="7.23168">
        <ele>1146.954</ele>
        <time>2009-05-08T12:27:25Z</time>
      </trkpt>
      <trkpt lat="43.91248" lon="7.23171">
        <ele>1147.825</ele>
        <time>2009-05-08T12:27:31Z</time>
      </trkpt>
      <trkpt lat="43.91247" lon="7.23177">
        <ele>1148.935</ele>
        <time>2009-05-08T12:27:36Z</time>
      </trkpt>
      <trkpt lat="43.91242" lon="7.23182">
        <ele>1149.35</ele>
        <time>2009-05-08T12:27:43Z</time>
      </trkpt>
      <trkpt lat="43.91239" lon="7.2318">
        <ele>1148.226</ele>
        <time>2009-05-08T12:27:52Z</time>
      </trkpt>
      <trkpt lat="43.91239" lon="7.23179">
        <ele>1148.231</ele>
        <time>2009-05-08T12:27:57Z</time>
      </trkpt>
      <trkpt lat="43.91233" lon="7.23167">
        <ele>1147.237</ele>
        <time>2009-05-08T12:28:06Z</time>
      </trkpt>
      <trkpt lat="43.91231" lon="7.23163">
        <ele>1147.087</ele>
        <time>2009-05-08T12:28:09Z</time>
      </trkpt>
      <trkpt lat="43.91228" lon="7.23159">
        <ele>1147.018</ele>
        <time>2009-05-08T12:28:12Z</time>
      </trkpt>
      <trkpt lat="43.91226" lon="7.2316">
        <ele>1147.646</ele>
        <time>2009-05-08T12:28:16Z</time>
      </trkpt>
      <trkpt lat="43.91226" lon="7.23174">
        <ele>1149.864</ele>
        <time>2009-05-08T12:28:25Z</time>
      </trkpt>
      <trkpt lat="43.91226" lon="7.23188">
        <ele>1153.702</ele>
        <time>2009-05-08T12:28:33Z</time>
      </trkpt>
      <trkpt lat="43.91215" lon="7.23199">
        <ele>1156.643</ele>
        <time>2009-05-08T12:28:42Z</time>
      </trkpt>
      <trkpt lat="43.91208" lon="7.23203">
        <ele>1159.288</ele>
        <time>2009-05-08T12:28:48Z</time>
      </trkpt>
      <trkpt lat="43.91197" lon="7.23209">
        <ele>1162.702</ele>
        <time>2009-05-08T12:28:57Z</time>
      </trkpt>
      <trkpt lat="43.91196" lon="7.2321">
        <ele>1163.564</ele>
        <time>2009-05-08T12:28:58Z</time>
      </trkpt>
      <trkpt lat="43.91188" lon="7.23215">
        <ele>1164.594</ele>
        <time>2009-05-08T12:29:06Z</time>
      </trkpt>
      <trkpt lat="43.91183" lon="7.23216">
        <ele>1165.125</ele>
        <time>2009-05-08T12:29:12Z</time>
      </trkpt>
      <trkpt lat="43.91182" lon="7.23218">
        <ele>1163.997</ele>
        <time>2009-05-08T12:29:28Z</time>
      </trkpt>
      <trkpt lat="43.9118" lon="7.23217">
        <ele>1163.477</ele>
        <time>2009-05-08T12:29:37Z</time>
      </trkpt>
      <trkpt lat="43.91176" lon="7.23214">
        <ele>1163.542</ele>
        <time>2009-05-08T12:29:45Z</time>
      </trkpt>
      <trkpt lat="43.91175" lon="7.23213">
        <ele>1164.415</ele>
        <time>2009-05-08T12:29:51Z</time>
      </trkpt>
      <trkpt lat="43.91171" lon="7.23215">
        <ele>1164.737</ele>
        <time>2009-05-08T12:29:56Z</time>
      </trkpt>
      <trkpt lat="43.91157" lon="7.23219">
        <ele>1166.925</ele>
        <time>2009-05-08T12:30:06Z</time>
      </trkpt>
      <trkpt lat="43.91148" lon="7.23216">
        <ele>1168.688</ele>
        <time>2009-05-08T12:30:13Z</time>
      </trkpt>
      <trkpt lat="43.91136" lon="7.23202">
        <ele>1169.294</ele>
        <time>2009-05-08T12:30:23Z</time>
      </trkpt>
      <trkpt lat="43.91127" lon="7.2319">
        <ele>1170.456</ele>
        <time>2009-05-08T12:30:31Z</time>
      </trkpt>
      <trkpt lat="43.91118" lon="7.23173">
        <ele>1171.922</ele>
        <time>2009-05-08T12:30:41Z</time>
      </trkpt>
      <trkpt lat="43.91115" lon="7.23153">
        <ele>1174.649</ele>
        <time>2009-05-08T12:30:51Z</time>
      </trkpt>
      <trkpt lat="43.91114" lon="7.23129">
        <ele>1175.345</ele>
        <time>2009-05-08T12:30:59Z</time>
      </trkpt>
      <trkpt lat="43.91112" lon="7.23113">
        <ele>1174.321</ele>
        <time>2009-05-08T12:31:04Z</time>
      </trkpt>
      <trkpt lat="43.91119" lon="7.23107">
        <ele>1176.445</ele>
        <time>2009-05-08T12:31:08Z</time>
      </trkpt>
      <trkpt lat="43.91127" lon="7.23096">
        <ele>1175.972</ele>
        <time>2009-05-08T12:31:15Z</time>
      </trkpt>
      <trkpt lat="43.91137" lon="7.23085">
        <ele>1174.351</ele>
        <time>2009-05-08T12:31:21Z</time>
      </trkpt>
      <trkpt lat="43.91137" lon="7.2306">
        <ele>1175.812</ele>
        <time>2009-05-08T12:31:26Z</time>
      </trkpt>
      <trkpt lat="43.91135" lon="7.23057">
        <ele>1176.183</ele>
        <time>2009-05-08T12:31:30Z</time>
      </trkpt>
      <trkpt lat="43.91136" lon="7.23054">
        <ele>1176.896</ele>
        <time>2009-05-08T12:32:14Z</time>
      </trkpt>
      <trkpt lat="43.9113" lon="7.23051">
        <ele>1174.196</ele>
        <time>2009-05-08T12:53:55Z</time>
      </trkpt>
      <trkpt lat="43.91125" lon="7.23046">
        <ele>1175.216</ele>
        <time>2009-05-08T12:54:02Z</time>
      </trkpt>
      <trkpt lat="43.9112" lon="7.23041">
        <ele>1176.539</ele>
        <time>2009-05-08T12:54:11Z</time>
      </trkpt>
      <trkpt lat="43.91121" lon="7.23042">
        <ele>1177.039</ele>
        <time>2009-05-08T12:55:15Z</time>
      </trkpt>
      <trkpt lat="43.9111" lon="7.23043">
        <ele>1177.792</ele>
        <time>2009-05-08T12:55:24Z</time>
      </trkpt>
      <trkpt lat="43.91103" lon="7.23042">
        <ele>1178.363</ele>
        <time>2009-05-08T12:55:32Z</time>
      </trkpt>
      <trkpt lat="43.91098" lon="7.23038">
        <ele>1179.232</ele>
        <time>2009-05-08T12:55:42Z</time>
      </trkpt>
      <trkpt lat="43.91084" lon="7.23027">
        <ele>1180.281</ele>
        <time>2009-05-08T12:55:49Z</time>
      </trkpt>
      <trkpt lat="43.91079" lon="7.23014">
        <ele>1179.925</ele>
        <time>2009-05-08T12:55:56Z</time>
      </trkpt>
      <trkpt lat="43.91069" lon="7.22993">
        <ele>1180.931</ele>
        <time>2009-05-08T12:56:05Z</time>
      </trkpt>
      <trkpt lat="43.91068" lon="7.22988">
        <ele>1181.071</ele>
        <time>2009-05-08T12:56:07Z</time>
      </trkpt>
      <trkpt lat="43.91065" lon="7.22978">
        <ele>1181.213</ele>
        <time>2009-05-08T12:56:11Z</time>
      </trkpt>
      <trkpt lat="43.9106" lon="7.2296">
        <ele>1181.62</ele>
        <time>2009-05-08T12:56:19Z</time>
      </trkpt>
      <trkpt lat="43.91049" lon="7.22936">
        <ele>1180.716</ele>
        <time>2009-05-08T12:56:27Z</time>
      </trkpt>
      <trkpt lat="43.91033" lon="7.22914">
        <ele>1179.907</ele>
        <time>2009-05-08T12:56:34Z</time>
      </trkpt>
      <trkpt lat="43.91009" lon="7.22881">
        <ele>1178.743</ele>
        <time>2009-05-08T12:56:42Z</time>
      </trkpt>
      <trkpt lat="43.90991" lon="7.22859">
        <ele>1179.763</ele>
        <time>2009-05-08T12:56:49Z</time>
      </trkpt>
      <trkpt lat="43.90977" lon="7.22847">
        <ele>1179.882</ele>
        <time>2009-05-08T12:56:56Z</time>
      </trkpt>
      <trkpt lat="43.90972" lon="7.22833">
        <ele>1181.08</ele>
        <time>2009-05-08T12:57:02Z</time>
      </trkpt>
      <trkpt lat="43.9097" lon="7.22822">
        <ele>1180.453</ele>
        <time>2009-05-08T12:57:09Z</time>
      </trkpt>
      <trkpt lat="43.9097" lon="7.22819">
        <ele>1180.501</ele>
        <time>2009-05-08T12:58:05Z</time>
      </trkpt>
      <trkpt lat="43.90971" lon="7.22817">
        <ele>1179.981</ele>
        <time>2009-05-08T12:58:15Z</time>
      </trkpt>
      <trkpt lat="43.90969" lon="7.22813">
        <ele>1178.443</ele>
        <time>2009-05-08T12:58:23Z</time>
      </trkpt>
      <trkpt lat="43.90969" lon="7.2281">
        <ele>1177.975</ele>
        <time>2009-05-08T12:58:30Z</time>
      </trkpt>
      <trkpt lat="43.90968" lon="7.22805">
        <ele>1177.672</ele>
        <time>2009-05-08T12:58:39Z</time>
      </trkpt>
      <trkpt lat="43.90967" lon="7.22802">
        <ele>1176.288</ele>
        <time>2009-05-08T12:58:45Z</time>
      </trkpt>
      <trkpt lat="43.90966" lon="7.22796">
        <ele>1174.978</ele>
        <time>2009-05-08T12:58:56Z</time>
      </trkpt>
      <trkpt lat="43.90965" lon="7.22793">
        <ele>1173.061</ele>
        <time>2009-05-08T12:59:10Z</time>
      </trkpt>
      <trkpt lat="43.90965" lon="7.22788">
        <ele>1171.208</ele>
        <time>2009-05-08T12:59:19Z</time>
      </trkpt>
      <trkpt lat="43.90966" lon="7.22785">
        <ele>1169.469</ele>
        <time>2009-05-08T12:59:33Z</time>
      </trkpt>
      <trkpt lat="43.90965" lon="7.22781">
        <ele>1168.181</ele>
        <time>2009-05-08T12:59:40Z</time>
      </trkpt>
      <trkpt lat="43.90962" lon="7.22779">
        <ele>1167.36</ele>
        <time>2009-05-08T12:59:49Z</time>
      </trkpt>
      <trkpt lat="43.90961" lon="7.22779">
        <ele>1167.322</ele>
        <time>2009-05-08T13:00:00Z</time>
      </trkpt>
      <trkpt lat="43.90958" lon="7.22775">
        <ele>1167.477</ele>
        <time>2009-05-08T13:00:08Z</time>
      </trkpt>
      <trkpt lat="43.90957" lon="7.22771">
        <ele>1167.559</ele>
        <time>2009-05-08T13:00:16Z</time>
      </trkpt>
      <trkpt lat="43.90955" lon="7.22763">
        <ele>1168.433</ele>
        <time>2009-05-08T13:00:26Z</time>
      </trkpt>
      <trkpt lat="43.90955" lon="7.22759">
        <ele>1168.848</ele>
        <time>2009-05-08T13:00:30Z</time>
      </trkpt>
      <trkpt lat="43.90953" lon="7.22748">
        <ele>1168.769</ele>
        <time>2009-05-08T13:00:39Z</time>
      </trkpt>
      <trkpt lat="43.90953" lon="7.22743">
        <ele>1168.532</ele>
        <time>2009-05-08T13:00:48Z</time>
      </trkpt>
      <trkpt lat="43.90952" lon="7.22741">
        <ele>1168.528</ele>
        <time>2009-05-08T13:00:57Z</time>
      </trkpt>
      <trkpt lat="43.90951" lon="7.22738">
        <ele>1168.548</ele>
        <time>2009-05-08T13:01:04Z</time>
      </trkpt>
      <trkpt lat="43.90949" lon="7.22735">
        <ele>1168.328</ele>
        <time>2009-05-08T13:01:17Z</time>
      </trkpt>
      <trkpt lat="43.90946" lon="7.22729">
        <ele>1167.256</ele>
        <time>2009-05-08T13:01:26Z</time>
      </trkpt>
      <trkpt lat="43.90945" lon="7.22723">
        <ele>1165.544</ele>
        <time>2009-05-08T13:01:33Z</time>
      </trkpt>
      <trkpt lat="43.90943" lon="7.22718">
        <ele>1164.294</ele>
        <time>2009-05-08T13:01:51Z</time>
      </trkpt>
      <trkpt lat="43.90942" lon="7.22716">
        <ele>1164.181</ele>
        <time>2009-05-08T13:02:01Z</time>
      </trkpt>
      <trkpt lat="43.90939" lon="7.22714">
        <ele>1162.521</ele>
        <time>2009-05-08T13:02:09Z</time>
      </trkpt>
      <trkpt lat="43.90934" lon="7.22707">
        <ele>1159.388</ele>
        <time>2009-05-08T13:02:23Z</time>
      </trkpt>
      <trkpt lat="43.90931" lon="7.22699">
        <ele>1157.227</ele>
        <time>2009-05-08T13:02:34Z</time>
      </trkpt>
      <trkpt lat="43.90928" lon="7.2269">
        <ele>1156.675</ele>
        <time>2009-05-08T13:02:43Z</time>
      </trkpt>
      <trkpt lat="43.90924" lon="7.22685">
        <ele>1155.481</ele>
        <time>2009-05-08T13:02:50Z</time>
      </trkpt>
      <trkpt lat="43.90922" lon="7.22679">
        <ele>1153.59</ele>
        <time>2009-05-08T13:02:56Z</time>
      </trkpt>
      <trkpt lat="43.90918" lon="7.22674">
        <ele>1152.684</ele>
        <time>2009-05-08T13:03:05Z</time>
      </trkpt>
      <trkpt lat="43.90914" lon="7.22669">
        <ele>1152.376</ele>
        <time>2009-05-08T13:03:12Z</time>
      </trkpt>
      <trkpt lat="43.90908" lon="7.22666">
        <ele>1149.981</ele>
        <time>2009-05-08T13:03:20Z</time>
      </trkpt>
      <trkpt lat="43.90907" lon="7.22663">
        <ele>1149.243</ele>
        <time>2009-05-08T13:03:27Z</time>
      </trkpt>
      <trkpt lat="43.90907" lon="7.22663">
        <ele>1149.294</ele>
        <time>2009-05-08T13:03:28Z</time>
      </trkpt>
      <trkpt lat="43.90898" lon="7.22658">
        <ele>1146.747</ele>
        <time>2009-05-08T13:03:34Z</time>
      </trkpt>
      <trkpt lat="43.90884" lon="7.22645">
        <ele>1143.169</ele>
        <time>2009-05-08T13:03:43Z</time>
      </trkpt>
      <trkpt lat="43.90882" lon="7.22644">
        <ele>1143.65</ele>
        <time>2009-05-08T13:03:52Z</time>
      </trkpt>
      <trkpt lat="43.90883" lon="7.22645">
        <ele>1142.845</ele>
        <time>2009-05-08T13:03:59Z</time>
      </trkpt>
      <trkpt lat="43.90881" lon="7.22651">
        <ele>1142.338</ele>
        <time>2009-05-08T13:04:06Z</time>
      </trkpt>
      <trkpt lat="43.90877" lon="7.2265">
        <ele>1141.596</ele>
        <time>2009-05-08T13:04:13Z</time>
      </trkpt>
      <trkpt lat="43.90877" lon="7.2265">
        <ele>1141.411</ele>
        <time>2009-05-08T13:04:14Z</time>
      </trkpt>
      <trkpt lat="43.90871" lon="7.22646">
        <ele>1140.169</ele>
        <time>2009-05-08T13:04:22Z</time>
      </trkpt>
      <trkpt lat="43.90868" lon="7.22641">
        <ele>1139.731</ele>
        <time>2009-05-08T13:04:29Z</time>
      </trkpt>
      <trkpt lat="43.90861" lon="7.22637">
        <ele>1138.357</ele>
        <time>2009-05-08T13:04:37Z</time>
      </trkpt>
      <trkpt lat="43.90856" lon="7.22634">
        <ele>1136.447</ele>
        <time>2009-05-08T13:04:48Z</time>
      </trkpt>
      <trkpt lat="43.90852" lon="7.22631">
        <ele>1133.902</ele>
        <time>2009-05-08T13:04:58Z</time>
      </trkpt>
      <trkpt lat="43.90847" lon="7.22629">
        <ele>1133.59</ele>
        <time>2009-05-08T13:05:08Z</time>
      </trkpt>
      <trkpt lat="43.90841" lon="7.22627">
        <ele>1129.998</ele>
        <time>2009-05-08T13:05:18Z</time>
      </trkpt>
      <trkpt lat="43.90838" lon="7.22624">
        <ele>1126.729</ele>
        <time>2009-05-08T13:05:26Z</time>
      </trkpt>
      <trkpt lat="43.90831" lon="7.22618">
        <ele>1124.186</ele>
        <time>2009-05-08T13:05:37Z</time>
      </trkpt>
      <trkpt lat="43.90828" lon="7.22614">
        <ele>1122.941</ele>
        <time>2009-05-08T13:05:47Z</time>
      </trkpt>
      <trkpt lat="43.90814" lon="7.226">
        <ele>1119.968</ele>
        <time>2009-05-08T13:05:53Z</time>
      </trkpt>
      <trkpt lat="43.90804" lon="7.22585">
        <ele>1117.935</ele>
        <time>2009-05-08T13:05:58Z</time>
      </trkpt>
      <trkpt lat="43.90795" lon="7.22574">
        <ele>1114.521</ele>
        <time>2009-05-08T13:06:03Z</time>
      </trkpt>
      <trkpt lat="43.9078" lon="7.22559">
        <ele>1109.163</ele>
        <time>2009-05-08T13:06:09Z</time>
      </trkpt>
      <trkpt lat="43.90767" lon="7.22546">
        <ele>1109.294</ele>
        <time>2009-05-08T13:06:15Z</time>
      </trkpt>
      <trkpt lat="43.90767" lon="7.22547">
        <ele>1109.112</ele>
        <time>2009-05-08T13:06:22Z</time>
      </trkpt>
      <trkpt lat="43.9076" lon="7.22537">
        <ele>1109.063</ele>
        <time>2009-05-08T13:06:42Z</time>
      </trkpt>
      <trkpt lat="43.90756" lon="7.22531">
        <ele>1110.02</ele>
        <time>2009-05-08T13:06:50Z</time>
      </trkpt>
      <trkpt lat="43.90755" lon="7.2253">
        <ele>1109.342</ele>
        <time>2009-05-08T13:06:57Z</time>
      </trkpt>
      <trkpt lat="43.90753" lon="7.22531">
        <ele>1110.114</ele>
        <time>2009-05-08T13:07:06Z</time>
      </trkpt>
      <trkpt lat="43.90752" lon="7.22529">
        <ele>1109.896</ele>
        <time>2009-05-08T13:07:15Z</time>
      </trkpt>
      <trkpt lat="43.90747" lon="7.22525">
        <ele>1109.552</ele>
        <time>2009-05-08T13:07:23Z</time>
      </trkpt>
      <trkpt lat="43.90746" lon="7.22524">
        <ele>1109.175</ele>
        <time>2009-05-08T13:07:30Z</time>
      </trkpt>
      <trkpt lat="43.90742" lon="7.22521">
        <ele>1108.955</ele>
        <time>2009-05-08T13:07:38Z</time>
      </trkpt>
      <trkpt lat="43.90737" lon="7.22525">
        <ele>1108.838</ele>
        <time>2009-05-08T13:07:45Z</time>
      </trkpt>
      <trkpt lat="43.90735" lon="7.2252">
        <ele>1105.571</ele>
        <time>2009-05-08T13:07:51Z</time>
      </trkpt>
      <trkpt lat="43.90734" lon="7.22518">
        <ele>1103.853</ele>
        <time>2009-05-08T13:07:57Z</time>
      </trkpt>
      <trkpt lat="43.90734" lon="7.22518">
        <ele>1103.865</ele>
        <time>2009-05-08T13:07:58Z</time>
      </trkpt>
      <trkpt lat="43.90723" lon="7.2251">
        <ele>1101.633</ele>
        <time>2009-05-08T13:08:04Z</time>
      </trkpt>
      <trkpt lat="43.90712" lon="7.22498">
        <ele>1098.198</ele>
        <time>2009-05-08T13:08:10Z</time>
      </trkpt>
      <trkpt lat="43.9071" lon="7.22498">
        <ele>1097.277</ele>
        <time>2009-05-08T13:08:17Z</time>
      </trkpt>
      <trkpt lat="43.90708" lon="7.22496">
        <ele>1095.85</ele>
        <time>2009-05-08T13:08:25Z</time>
      </trkpt>
      <trkpt lat="43.90703" lon="7.22495">
        <ele>1093.728</ele>
        <time>2009-05-08T13:08:34Z</time>
      </trkpt>
      <trkpt lat="43.90699" lon="7.22493">
        <ele>1092.238</ele>
        <time>2009-05-08T13:08:44Z</time>
      </trkpt>
      <trkpt lat="43.90695" lon="7.22487">
        <ele>1090.835</ele>
        <time>2009-05-08T13:08:54Z</time>
      </trkpt>
      <trkpt lat="43.9069" lon="7.22483">
        <ele>1089.564</ele>
        <time>2009-05-08T13:09:01Z</time>
      </trkpt>
      <trkpt lat="43.90687" lon="7.22478">
        <ele>1088.743</ele>
        <time>2009-05-08T13:09:10Z</time>
      </trkpt>
      <trkpt lat="43.90684" lon="7.22475">
        <ele>1088.396</ele>
        <time>2009-05-08T13:09:18Z</time>
      </trkpt>
      <trkpt lat="43.90681" lon="7.22475">
        <ele>1088.259</ele>
        <time>2009-05-08T13:09:26Z</time>
      </trkpt>
      <trkpt lat="43.90679" lon="7.22474">
        <ele>1086.543</ele>
        <time>2009-05-08T13:09:34Z</time>
      </trkpt>
      <trkpt lat="43.90676" lon="7.2247">
        <ele>1084.618</ele>
        <time>2009-05-08T13:09:42Z</time>
      </trkpt>
      <trkpt lat="43.9067" lon="7.22466">
        <ele>1082.292</ele>
        <time>2009-05-08T13:09:51Z</time>
      </trkpt>
      <trkpt lat="43.90667" lon="7.2246">
        <ele>1080.054</ele>
        <time>2009-05-08T13:09:59Z</time>
      </trkpt>
      <trkpt lat="43.90665" lon="7.22458">
        <ele>1079.255</ele>
        <time>2009-05-08T13:10:08Z</time>
      </trkpt>
      <trkpt lat="43.90663" lon="7.22454">
        <ele>1077.504</ele>
        <time>2009-05-08T13:10:15Z</time>
      </trkpt>
      <trkpt lat="43.90659" lon="7.22446">
        <ele>1076.078</ele>
        <time>2009-05-08T13:10:24Z</time>
      </trkpt>
      <trkpt lat="43.90656" lon="7.22442">
        <ele>1074.95</ele>
        <time>2009-05-08T13:10:33Z</time>
      </trkpt>
      <trkpt lat="43.90655" lon="7.22446">
        <ele>1073.476</ele>
        <time>2009-05-08T13:10:40Z</time>
      </trkpt>
      <trkpt lat="43.90652" lon="7.2245">
        <ele>1072.084</ele>
        <time>2009-05-08T13:10:48Z</time>
      </trkpt>
      <trkpt lat="43.9065" lon="7.22454">
        <ele>1070.442</ele>
        <time>2009-05-08T13:10:55Z</time>
      </trkpt>
      <trkpt lat="43.90648" lon="7.22453">
        <ele>1069.712</ele>
        <time>2009-05-08T13:11:01Z</time>
      </trkpt>
      <trkpt lat="43.90644" lon="7.22448">
        <ele>1068.908</ele>
        <time>2009-05-08T13:11:09Z</time>
      </trkpt>
      <trkpt lat="43.90641" lon="7.22443">
        <ele>1066.646</ele>
        <time>2009-05-08T13:11:18Z</time>
      </trkpt>
      <trkpt lat="43.90641" lon="7.22444">
        <ele>1066.285</ele>
        <time>2009-05-08T13:12:10Z</time>
      </trkpt>
      <trkpt lat="43.90634" lon="7.22456">
        <ele>1064.109</ele>
        <time>2009-05-08T13:12:16Z</time>
      </trkpt>
      <trkpt lat="43.90631" lon="7.22458">
        <ele>1062.967</ele>
        <time>2009-05-08T13:12:22Z</time>
      </trkpt>
      <trkpt lat="43.9063" lon="7.22457">
        <ele>1063.308</ele>
        <time>2009-05-08T13:12:24Z</time>
      </trkpt>
      <trkpt lat="43.90627" lon="7.2245">
        <ele>1060.753</ele>
        <time>2009-05-08T13:12:31Z</time>
      </trkpt>
      <trkpt lat="43.90624" lon="7.22449">
        <ele>1060.418</ele>
        <time>2009-05-08T13:12:46Z</time>
      </trkpt>
      <trkpt lat="43.90621" lon="7.22445">
        <ele>1059.792</ele>
        <time>2009-05-08T13:12:56Z</time>
      </trkpt>
      <trkpt lat="43.90618" lon="7.22444">
        <ele>1058.644</ele>
        <time>2009-05-08T13:13:06Z</time>
      </trkpt>
      <trkpt lat="43.90615" lon="7.22442">
        <ele>1055.493</ele>
        <time>2009-05-08T13:13:19Z</time>
      </trkpt>
      <trkpt lat="43.90614" lon="7.22441">
        <ele>1054.874</ele>
        <time>2009-05-08T13:13:21Z</time>
      </trkpt>
      <trkpt lat="43.90603" lon="7.22432">
        <ele>1050.628</ele>
        <time>2009-05-08T13:13:27Z</time>
      </trkpt>
      <trkpt lat="43.90593" lon="7.22419">
        <ele>1047.554</ele>
        <time>2009-05-08T13:13:33Z</time>
      </trkpt>
      <trkpt lat="43.90588" lon="7.22409">
        <ele>1043.923</ele>
        <time>2009-05-08T13:13:37Z</time>
      </trkpt>
      <trkpt lat="43.90584" lon="7.22409">
        <ele>1042.115</ele>
        <time>2009-05-08T13:13:44Z</time>
      </trkpt>
      <trkpt lat="43.90582" lon="7.22411">
        <ele>1041.499</ele>
        <time>2009-05-08T13:13:51Z</time>
      </trkpt>
      <trkpt lat="43.90581" lon="7.22413">
        <ele>1040.386</ele>
        <time>2009-05-08T13:14:00Z</time>
      </trkpt>
      <trkpt lat="43.90578" lon="7.22414">
        <ele>1039.173</ele>
        <time>2009-05-08T13:14:10Z</time>
      </trkpt>
      <trkpt lat="43.90574" lon="7.22411">
        <ele>1038.211</ele>
        <time>2009-05-08T13:14:25Z</time>
      </trkpt>
      <trkpt lat="43.90572" lon="7.22407">
        <ele>1038.052</ele>
        <time>2009-05-08T13:14:34Z</time>
      </trkpt>
      <trkpt lat="43.90572" lon="7.22406">
        <ele>1038.165</ele>
        <time>2009-05-08T13:14:35Z</time>
      </trkpt>
      <trkpt lat="43.90571" lon="7.22407">
        <ele>1036.277</ele>
        <time>2009-05-08T13:14:41Z</time>
      </trkpt>
      <trkpt lat="43.90569" lon="7.22409">
        <ele>1035.45</ele>
        <time>2009-05-08T13:14:47Z</time>
      </trkpt>
      <trkpt lat="43.90567" lon="7.22411">
        <ele>1034.969</ele>
        <time>2009-05-08T13:14:55Z</time>
      </trkpt>
      <trkpt lat="43.90562" lon="7.22413">
        <ele>1031.744</ele>
        <time>2009-05-08T13:15:04Z</time>
      </trkpt>
      <trkpt lat="43.90558" lon="7.22417">
        <ele>1030.122</ele>
        <time>2009-05-08T13:15:15Z</time>
      </trkpt>
      <trkpt lat="43.90552" lon="7.22417">
        <ele>1028.409</ele>
        <time>2009-05-08T13:15:25Z</time>
      </trkpt>
      <trkpt lat="43.90551" lon="7.22416">
        <ele>1028.414</ele>
        <time>2009-05-08T13:15:36Z</time>
      </trkpt>
      <trkpt lat="43.9055" lon="7.22413">
        <ele>1028.132</ele>
        <time>2009-05-08T13:15:43Z</time>
      </trkpt>
      <trkpt lat="43.90547" lon="7.22412">
        <ele>1027.214</ele>
        <time>2009-05-08T13:15:50Z</time>
      </trkpt>
      <trkpt lat="43.90547" lon="7.22412">
        <ele>1026.711</ele>
        <time>2009-05-08T13:16:01Z</time>
      </trkpt>
      <trkpt lat="43.90545" lon="7.22412">
        <ele>1026.209</ele>
        <time>2009-05-08T13:16:07Z</time>
      </trkpt>
      <trkpt lat="43.90542" lon="7.22409">
        <ele>1025.284</ele>
        <time>2009-05-08T13:16:17Z</time>
      </trkpt>
      <trkpt lat="43.90539" lon="7.22407">
        <ele>1023.87</ele>
        <time>2009-05-08T13:16:23Z</time>
      </trkpt>
      <trkpt lat="43.90536" lon="7.22408">
        <ele>1021.701</ele>
        <time>2009-05-08T13:16:32Z</time>
      </trkpt>
      <trkpt lat="43.90533" lon="7.22405">
        <ele>1021.391</ele>
        <time>2009-05-08T13:16:46Z</time>
      </trkpt>
      <trkpt lat="43.90529" lon="7.224">
        <ele>1020.267</ele>
        <time>2009-05-08T13:16:56Z</time>
      </trkpt>
      <trkpt lat="43.90523" lon="7.22402">
        <ele>1014.924</ele>
        <time>2009-05-08T13:17:07Z</time>
      </trkpt>
      <trkpt lat="43.9052" lon="7.22406">
        <ele>1012.359</ele>
        <time>2009-05-08T13:17:17Z</time>
      </trkpt>
      <trkpt lat="43.90517" lon="7.22402">
        <ele>1011.035</ele>
        <time>2009-05-08T13:17:26Z</time>
      </trkpt>
      <trkpt lat="43.90513" lon="7.22405">
        <ele>1009.533</ele>
        <time>2009-05-08T13:17:34Z</time>
      </trkpt>
      <trkpt lat="43.90512" lon="7.22409">
        <ele>1008.52</ele>
        <time>2009-05-08T13:17:42Z</time>
      </trkpt>
      <trkpt lat="43.90508" lon="7.22411">
        <ele>1005.676</ele>
        <time>2009-05-08T13:17:51Z</time>
      </trkpt>
      <trkpt lat="43.90506" lon="7.22406">
        <ele>1005.104</ele>
        <time>2009-05-08T13:17:59Z</time>
      </trkpt>
      <trkpt lat="43.90504" lon="7.22401">
        <ele>1004.282</ele>
        <time>2009-05-08T13:18:06Z</time>
      </trkpt>
      <trkpt lat="43.90501" lon="7.22395">
        <ele>1003.079</ele>
        <time>2009-05-08T13:18:15Z</time>
      </trkpt>
      <trkpt lat="43.90499" lon="7.22394">
        <ele>1003.132</ele>
        <time>2009-05-08T13:18:27Z</time>
      </trkpt>
      <trkpt lat="43.90497" lon="7.22389">
        <ele>1002.543</ele>
        <time>2009-05-08T13:18:35Z</time>
      </trkpt>
      <trkpt lat="43.90496" lon="7.22386">
        <ele>999.978</ele>
        <time>2009-05-08T13:18:43Z</time>
      </trkpt>
      <trkpt lat="43.90496" lon="7.22383">
        <ele>998.86</ele>
        <time>2009-05-08T13:18:50Z</time>
      </trkpt>
      <trkpt lat="43.90491" lon="7.22377">
        <ele>996.719</ele>
        <time>2009-05-08T13:19:01Z</time>
      </trkpt>
      <trkpt lat="43.9049" lon="7.22379">
        <ele>996.39</ele>
        <time>2009-05-08T13:19:04Z</time>
      </trkpt>
      <trkpt lat="43.90483" lon="7.22384">
        <ele>994.573</ele>
        <time>2009-05-08T13:19:12Z</time>
      </trkpt>
      <trkpt lat="43.90475" lon="7.22384">
        <ele>992.97</ele>
        <time>2009-05-08T13:19:21Z</time>
      </trkpt>
      <trkpt lat="43.90467" lon="7.22383">
        <ele>991.275</ele>
        <time>2009-05-08T13:19:31Z</time>
      </trkpt>
      <trkpt lat="43.90466" lon="7.22382">
        <ele>990.266</ele>
        <time>2009-05-08T13:19:42Z</time>
      </trkpt>
      <trkpt lat="43.90469" lon="7.22384">
        <ele>989.736</ele>
        <time>2009-05-08T13:26:00Z</time>
      </trkpt>
      <trkpt lat="43.90473" lon="7.22386">
        <ele>991.796</ele>
        <time>2009-05-08T13:26:08Z</time>
      </trkpt>
      <trkpt lat="43.90475" lon="7.22387">
        <ele>992.313</ele>
        <time>2009-05-08T13:26:11Z</time>
      </trkpt>
      <trkpt lat="43.90484" lon="7.22394">
        <ele>994.988</ele>
        <time>2009-05-08T13:26:20Z</time>
      </trkpt>
      <trkpt lat="43.90486" lon="7.22404">
        <ele>996.634</ele>
        <time>2009-05-08T13:26:30Z</time>
      </trkpt>
    </trkseg>
  </trk>
  <trk>
    <name><![CDATA[ACTIVE LOG154739]]></name>
    <trkseg>
      <trkpt lat="43.90694" lon="7.22261">
        <ele>1104.173</ele>
        <time>2009-05-08T13:47:39Z</time>
      </trkpt>
      <trkpt lat="43.90692" lon="7.22252">
        <ele>1095.731</ele>
        <time>2009-05-08T13:47:49Z</time>
      </trkpt>
      <trkpt lat="43.90693" lon="7.22253">
        <ele>1097.18</ele>
        <time>2009-05-08T13:47:57Z</time>
      </trkpt>
    </trkseg>
  </trk>
</gpx>